Colorado River (Arizona), Lees Ferry (09380000)

StateArizonaLatestUnknown (7120 cfs)
RiverColorado RiverRatingObservedEstimated
Updated2026-05-05 11:00 (44 minutes ago)Flood - The river is flooding. Obstacles can be treacherous or deadly. The river should be avoided at this stage for casual trips and definitely for the inexperienced. Trips should be attempted only with protective gear and equipment.Flood(none)(none)
Discharge7120 cfs (median: 15000 cfs)High - The river is high and potentially dangerous, especially for the young and / or inexperienced. Normal stream obstacles are sometimes difficult to navigate. Extended distances can be attempted, but canoe travel may not be advisable.High(none)(none)
Height7.79 feetGood - Conditions are ideal for a canoe or kayak. Boats typically will drag on fewer than one-quarter of riffles, if at all, and portages are unnecessary or rare. Normal float lengths can be attempted without a problem.Good(none)(none)
TrendRising (rising over 24 hours)Low - River is low but can still be floated. Some riffles are okay but most come with significant dragging and might need a portage. Float lengths should be reduced to accommodate low flow, dragging, and portages.Low(none)(none)
USGSExternal icon USGS Site (External icon Duck Duck Go Maps)Poor - River is too low to float comfortably. Most or all riffles will drag or must be portaged and some obstacles (such as slick shelf rock) cause undue problems. Avoid the river at this stage for casual paddling trips.Poor(none)(none)

Trending Data

Plot Image

Trips for Colorado River (Arizona), Lees Ferry (09380000)

DateStartEndDistanceConditionDischargeHeightFishingDetails

A total of 0 rows are displayed.

Condition Descriptions

Fishing Conditions

Fish Species

Notes

Classic Trip List

The classic River Trips application is still available for use. It is updated with the new system using a data retrofit. It is no longer maintained. The original River Trips application is no longer updated (as of 1 Dec 2016) but can be checked for errors or for the condition of the data before it was converted to the new system.

Gauge Data Table

ObservationHeightDischargeMaximum
Discharge
Minimum
Discharge
Mean
Discharge
P05P10P20P25P50
(Median)
P75P80P90P95
2026-05-05 11:00 7.79 7120 77500 (1952) 1010 (1963) 21000 6720 8750 10300 10500 15000 27000 31700 47800 57800
2026-05-05 10:00 7.62 6590 77500 (1952) 1010 (1963) 21000 6720 8750 10300 10500 15000 27000 31700 47800 57800
2026-05-05 09:00 7.51 6260 77500 (1952) 1010 (1963) 21000 6720 8750 10300 10500 15000 27000 31700 47800 57800
2026-05-05 08:00 7.49 6210 77500 (1952) 1010 (1963) 21000 6720 8750 10300 10500 15000 27000 31700 47800 57800
2026-05-05 07:00 7.53 6320 77500 (1952) 1010 (1963) 21000 6720 8750 10300 10500 15000 27000 31700 47800 57800
2026-05-05 06:00 7.60 6530 77500 (1952) 1010 (1963) 21000 6720 8750 10300 10500 15000 27000 31700 47800 57800
2026-05-05 05:00 7.72 6900 77500 (1952) 1010 (1963) 21000 6720 8750 10300 10500 15000 27000 31700 47800 57800
2026-05-05 04:00 7.87 7370 77500 (1952) 1010 (1963) 21000 6720 8750 10300 10500 15000 27000 31700 47800 57800
2026-05-05 03:00 8.07 8040 77500 (1952) 1010 (1963) 21000 6720 8750 10300 10500 15000 27000 31700 47800 57800
2026-05-05 02:00 8.25 8660 77500 (1952) 1010 (1963) 21000 6720 8750 10300 10500 15000 27000 31700 47800 57800
2026-05-05 01:00 8.30 8840 77500 (1952) 1010 (1963) 21000 6720 8750 10300 10500 15000 27000 31700 47800 57800
2026-05-05 00:00 8.26 8700 77500 (1952) 1010 (1963) 21000 6720 8750 10300 10500 15000 27000 31700 47800 57800
2026-05-04 23:00 8.17 8380 77500 (1952) 1010 (1963) 21000 6720 8750 10300 10500 15000 27000 31700 47800 57800
2026-05-04 22:00 8.11 8170 69600 (1952) 1010 (1963) 20600 7690 8730 10300 10400 14400 26200 29600 48300 55700
2026-05-04 21:00 8.11 8170 69600 (1952) 1010 (1963) 20600 7690 8730 10300 10400 14400 26200 29600 48300 55700
2026-05-04 20:00 8.10 8140 69600 (1952) 1010 (1963) 20600 7690 8730 10300 10400 14400 26200 29600 48300 55700
2026-05-04 19:00 8.11 8170 69600 (1952) 1010 (1963) 20600 7690 8730 10300 10400 14400 26200 29600 48300 55700
2026-05-04 18:00 8.11 8170 69600 (1952) 1010 (1963) 20600 7690 8730 10300 10400 14400 26200 29600 48300 55700
2026-05-04 17:00 8.09 8110 69600 (1952) 1010 (1963) 20600 7690 8730 10300 10400 14400 26200 29600 48300 55700
2026-05-04 16:00 8.09 8110 69600 (1952) 1010 (1963) 20600 7690 8730 10300 10400 14400 26200 29600 48300 55700
2026-05-04 15:00 8.09 8110 69600 (1952) 1010 (1963) 20600 7690 8730 10300 10400 14400 26200 29600 48300 55700
2026-05-04 14:00 8.05 7970 69600 (1952) 1010 (1963) 20600 7690 8730 10300 10400 14400 26200 29600 48300 55700
2026-05-04 13:00 8.00 7800 69600 (1952) 1010 (1963) 20600 7690 8730 10300 10400 14400 26200 29600 48300 55700
2026-05-04 12:00 7.93 7570 69600 (1952) 1010 (1963) 20600 7690 8730 10300 10400 14400 26200 29600 48300 55700
2026-05-04 11:00 7.80 7150 69600 (1952) 1010 (1963) 20600 7690 8730 10300 10400 14400 26200 29600 48300 55700
2026-05-04 10:00 7.63 6620 69600 (1952) 1010 (1963) 20600 7690 8730 10300 10400 14400 26200 29600 48300 55700
2026-05-04 09:00 7.50 6240 69600 (1952) 1010 (1963) 20600 7690 8730 10300 10400 14400 26200 29600 48300 55700
2026-05-04 08:00 7.47 6150 69600 (1952) 1010 (1963) 20600 7690 8730 10300 10400 14400 26200 29600 48300 55700
2026-05-04 07:00 7.47 6150 69600 (1952) 1010 (1963) 20600 7690 8730 10300 10400 14400 26200 29600 48300 55700
2026-05-04 06:00 7.49 6210 69600 (1952) 1010 (1963) 20600 7690 8730 10300 10400 14400 26200 29600 48300 55700
2026-05-04 05:00 7.52 6290 69600 (1952) 1010 (1963) 20600 7690 8730 10300 10400 14400 26200 29600 48300 55700
2026-05-04 04:00 7.58 6470 69600 (1952) 1010 (1963) 20600 7690 8730 10300 10400 14400 26200 29600 48300 55700
2026-05-04 03:00 7.67 6740 69600 (1952) 1010 (1963) 20600 7690 8730 10300 10400 14400 26200 29600 48300 55700
2026-05-04 02:00 7.79 7120 69600 (1952) 1010 (1963) 20600 7690 8730 10300 10400 14400 26200 29600 48300 55700
2026-05-04 01:00 7.95 7640 69600 (1952) 1010 (1963) 20600 7690 8730 10300 10400 14400 26200 29600 48300 55700
2026-05-03 23:00 8140 69600 (1952) 1010 (1963) 20600 7690 8730 10300 10400 14400 26200 29600 48300 55700
2026-05-03 22:00 8.06 8000 69000 (1938) 1020 (1963) 19900 7740 8970 10100 10200 14600 25200 27400 46500 51300
2026-05-03 21:00 8.11 8170 69000 (1938) 1020 (1963) 19900 7740 8970 10100 10200 14600 25200 27400 46500 51300
2026-05-03 20:00 8.11 8170 69000 (1938) 1020 (1963) 19900 7740 8970 10100 10200 14600 25200 27400 46500 51300
2026-05-03 19:00 8.09 8110 69000 (1938) 1020 (1963) 19900 7740 8970 10100 10200 14600 25200 27400 46500 51300
2026-05-03 18:00 8.05 7970 69000 (1938) 1020 (1963) 19900 7740 8970 10100 10200 14600 25200 27400 46500 51300
2026-05-03 17:00 8.06 8000 69000 (1938) 1020 (1963) 19900 7740 8970 10100 10200 14600 25200 27400 46500 51300
2026-05-03 16:00 8.05 7970 69000 (1938) 1020 (1963) 19900 7740 8970 10100 10200 14600 25200 27400 46500 51300
2026-05-03 15:00 8.01 7840 69000 (1938) 1020 (1963) 19900 7740 8970 10100 10200 14600 25200 27400 46500 51300
2026-05-03 14:00 7.93 7570 69000 (1938) 1020 (1963) 19900 7740 8970 10100 10200 14600 25200 27400 46500 51300
2026-05-03 13:00 7.80 7150 69000 (1938) 1020 (1963) 19900 7740 8970 10100 10200 14600 25200 27400 46500 51300
2026-05-03 12:00 7.63 6620 69000 (1938) 1020 (1963) 19900 7740 8970 10100 10200 14600 25200 27400 46500 51300
2026-05-03 11:00 7.49 6210 69000 (1938) 1020 (1963) 19900 7740 8970 10100 10200 14600 25200 27400 46500 51300
2026-05-03 10:00 7.47 6150 69000 (1938) 1020 (1963) 19900 7740 8970 10100 10200 14600 25200 27400 46500 51300
2026-05-03 09:00 7.47 6150 69000 (1938) 1020 (1963) 19900 7740 8970 10100 10200 14600 25200 27400 46500 51300
2026-05-03 08:00 7.47 6150 69000 (1938) 1020 (1963) 19900 7740 8970 10100 10200 14600 25200 27400 46500 51300
2026-05-03 07:00 7.49 6210 69000 (1938) 1020 (1963) 19900 7740 8970 10100 10200 14600 25200 27400 46500 51300
2026-05-03 06:00 7.50 6240 69000 (1938) 1020 (1963) 19900 7740 8970 10100 10200 14600 25200 27400 46500 51300
2026-05-03 05:00 7.53 6320 69000 (1938) 1020 (1963) 19900 7740 8970 10100 10200 14600 25200 27400 46500 51300
2026-05-03 04:00 7.58 6470 69000 (1938) 1020 (1963) 19900 7740 8970 10100 10200 14600 25200 27400 46500 51300
2026-05-03 03:00 7.67 6740 69000 (1938) 1020 (1963) 19900 7740 8970 10100 10200 14600 25200 27400 46500 51300
2026-05-03 02:00 7.80 7150 69000 (1938) 1020 (1963) 19900 7740 8970 10100 10200 14600 25200 27400 46500 51300
2026-05-03 01:00 7.96 7670 69000 (1938) 1020 (1963) 19900 7740 8970 10100 10200 14600 25200 27400 46500 51300
2026-05-03 00:00 8.08 8070 69000 (1938) 1020 (1963) 19900 7740 8970 10100 10200 14600 25200 27400 46500 51300
2026-05-02 23:00 8.11 8170 69000 (1938) 1020 (1963) 19900 7740 8970 10100 10200 14600 25200 27400 46500 51300
2026-05-02 22:00 8.11 8170 70800 (1952) 1030 (1963) 19500 7520 8780 9950 10200 14200 24700 26800 42300 50300
2026-05-02 21:00 8.10 8140 70800 (1952) 1030 (1963) 19500 7520 8780 9950 10200 14200 24700 26800 42300 50300
2026-05-02 20:00 8.11 8170 70800 (1952) 1030 (1963) 19500 7520 8780 9950 10200 14200 24700 26800 42300 50300
2026-05-02 19:00 8.11 8170 70800 (1952) 1030 (1963) 19500 7520 8780 9950 10200 14200 24700 26800 42300 50300
2026-05-02 18:00 8.09 8110 70800 (1952) 1030 (1963) 19500 7520 8780 9950 10200 14200 24700 26800 42300 50300
2026-05-02 17:00 8.09 8110 70800 (1952) 1030 (1963) 19500 7520 8780 9950 10200 14200 24700 26800 42300 50300
2026-05-02 16:00 8.07 8040 70800 (1952) 1030 (1963) 19500 7520 8780 9950 10200 14200 24700 26800 42300 50300
2026-05-02 15:00 8.03 7900 70800 (1952) 1030 (1963) 19500 7520 8780 9950 10200 14200 24700 26800 42300 50300
2026-05-02 14:00 7.94 7600 70800 (1952) 1030 (1963) 19500 7520 8780 9950 10200 14200 24700 26800 42300 50300
2026-05-02 13:00 7.81 7180 70800 (1952) 1030 (1963) 19500 7520 8780 9950 10200 14200 24700 26800 42300 50300
2026-05-02 12:00 7.64 6650 70800 (1952) 1030 (1963) 19500 7520 8780 9950 10200 14200 24700 26800 42300 50300
2026-05-02 11:00 7.49 6210 70800 (1952) 1030 (1963) 19500 7520 8780 9950 10200 14200 24700 26800 42300 50300
2026-05-02 10:00 7.47 6150 70800 (1952) 1030 (1963) 19500 7520 8780 9950 10200 14200 24700 26800 42300 50300
2026-05-02 09:00 7.48 6180 70800 (1952) 1030 (1963) 19500 7520 8780 9950 10200 14200 24700 26800 42300 50300
2026-05-02 08:00 7.50 6240 70800 (1952) 1030 (1963) 19500 7520 8780 9950 10200 14200 24700 26800 42300 50300
2026-05-02 07:00 7.54 6350 70800 (1952) 1030 (1963) 19500 7520 8780 9950 10200 14200 24700 26800 42300 50300
2026-05-02 06:00 7.61 6560 70800 (1952) 1030 (1963) 19500 7520 8780 9950 10200 14200 24700 26800 42300 50300
2026-05-02 05:00 7.71 6870 70800 (1952) 1030 (1963) 19500 7520 8780 9950 10200 14200 24700 26800 42300 50300
2026-05-02 04:00 7.86 7340 70800 (1952) 1030 (1963) 19500 7520 8780 9950 10200 14200 24700 26800 42300 50300
2026-05-02 03:00 8.06 8000 70800 (1952) 1030 (1963) 19500 7520 8780 9950 10200 14200 24700 26800 42300 50300
2026-05-02 02:00 8.23 8590 70800 (1952) 1030 (1963) 19500 7520 8780 9950 10200 14200 24700 26800 42300 50300
2026-05-02 01:00 8.31 8880 70800 (1952) 1030 (1963) 19500 7520 8780 9950 10200 14200 24700 26800 42300 50300
2026-05-02 00:00 8.28 8770 70800 (1952) 1030 (1963) 19500 7520 8780 9950 10200 14200 24700 26800 42300 50300
2026-05-01 23:00 8.19 8450 70800 (1952) 1030 (1963) 19500 7520 8780 9950 10200 14200 24700 26800 42300 50300
2026-05-01 22:00 8.12 8210 78600 (1952) 1020 (1963) 19500 7140 8760 10100 10300 14700 24800 27700 41100 47400
2026-05-01 21:00 8.11 8170 78600 (1952) 1020 (1963) 19500 7140 8760 10100 10300 14700 24800 27700 41100 47400
2026-05-01 20:00 8.10 8140 78600 (1952) 1020 (1963) 19500 7140 8760 10100 10300 14700 24800 27700 41100 47400
2026-05-01 19:00 8.11 8170 78600 (1952) 1020 (1963) 19500 7140 8760 10100 10300 14700 24800 27700 41100 47400
2026-05-01 18:00 8.10 8140 78600 (1952) 1020 (1963) 19500 7140 8760 10100 10300 14700 24800 27700 41100 47400
2026-05-01 17:00 8.11 8170 78600 (1952) 1020 (1963) 19500 7140 8760 10100 10300 14700 24800 27700 41100 47400
2026-05-01 16:00 8.09 8110 78600 (1952) 1020 (1963) 19500 7140 8760 10100 10300 14700 24800 27700 41100 47400
2026-05-01 15:00 8.06 8000 78600 (1952) 1020 (1963) 19500 7140 8760 10100 10300 14700 24800 27700 41100 47400
2026-05-01 14:00 8.03 7900 78600 (1952) 1020 (1963) 19500 7140 8760 10100 10300 14700 24800 27700 41100 47400
2026-05-01 13:00 8.00 7800 78600 (1952) 1020 (1963) 19500 7140 8760 10100 10300 14700 24800 27700 41100 47400
2026-05-01 12:00 7.94 7600 78600 (1952) 1020 (1963) 19500 7140 8760 10100 10300 14700 24800 27700 41100 47400
2026-05-01 11:00 7.83 7250 78600 (1952) 1020 (1963) 19500 7140 8760 10100 10300 14700 24800 27700 41100 47400
2026-05-01 10:00 7.69 6810 78600 (1952) 1020 (1963) 19500 7140 8760 10100 10300 14700 24800 27700 41100 47400
2026-05-01 09:00 7.56 6410 78600 (1952) 1020 (1963) 19500 7140 8760 10100 10300 14700 24800 27700 41100 47400
2026-05-01 08:00 7.49 6210 78600 (1952) 1020 (1963) 19500 7140 8760 10100 10300 14700 24800 27700 41100 47400
2026-05-01 07:00 7.46 6120 78600 (1952) 1020 (1963) 19500 7140 8760 10100 10300 14700 24800 27700 41100 47400
2026-05-01 06:00 7.46 6120 78600 (1952) 1020 (1963) 19500 7140 8760 10100 10300 14700 24800 27700 41100 47400
2026-05-01 05:00 7.48 6180 78600 (1952) 1020 (1963) 19500 7140 8760 10100 10300 14700 24800 27700 41100 47400
2026-05-01 04:00 7.52 6290 78600 (1952) 1020 (1963) 19500 7140 8760 10100 10300 14700 24800 27700 41100 47400
2026-05-01 03:00 7.57 6440 78600 (1952) 1020 (1963) 19500 7140 8760 10100 10300 14700 24800 27700 41100 47400
2026-05-01 02:00 7.66 6710 78600 (1952) 1020 (1963) 19500 7140 8760 10100 10300 14700 24800 27700 41100 47400
2026-05-01 01:00 7.80 7150 78600 (1952) 1020 (1963) 19500 7140 8760 10100 10300 14700 24800 27700 41100 47400
2026-05-01 00:00 7.97 7700 78600 (1952) 1020 (1963) 19500 7140 8760 10100 10300 14700 24800 27700 41100 47400
2026-04-30 23:00 8.08 8070 78600 (1952) 1020 (1963) 19500 7140 8760 10100 10300 14700 24800 27700 41100 47400
2026-04-30 22:00 8.10 8140 75100 (1952) 986 (1977) 19500 6510 8530 9770 10300 14100 25300 28600 39400 49400
2026-04-30 21:00 8.11 8170 75100 (1952) 986 (1977) 19500 6510 8530 9770 10300 14100 25300 28600 39400 49400
2026-04-30 20:00 8.09 8110 75100 (1952) 986 (1977) 19500 6510 8530 9770 10300 14100 25300 28600 39400 49400
2026-04-30 19:00 8.10 8140 75100 (1952) 986 (1977) 19500 6510 8530 9770 10300 14100 25300 28600 39400 49400
2026-04-30 18:00 8.07 8040 75100 (1952) 986 (1977) 19500 6510 8530 9770 10300 14100 25300 28600 39400 49400
2026-04-30 17:00 8.08 8070 75100 (1952) 986 (1977) 19500 6510 8530 9770 10300 14100 25300 28600 39400 49400
2026-04-30 16:00 8.03 7900 75100 (1952) 986 (1977) 19500 6510 8530 9770 10300 14100 25300 28600 39400 49400
2026-04-30 15:00 8.01 7840 75100 (1952) 986 (1977) 19500 6510 8530 9770 10300 14100 25300 28600 39400 49400
2026-04-30 14:00 7.91 7500 75100 (1952) 986 (1977) 19500 6510 8530 9770 10300 14100 25300 28600 39400 49400
2026-04-30 13:00 7.80 7150 75100 (1952) 986 (1977) 19500 6510 8530 9770 10300 14100 25300 28600 39400 49400
2026-04-30 12:00 7.62 6590 75100 (1952) 986 (1977) 19500 6510 8530 9770 10300 14100 25300 28600 39400 49400
2026-04-30 11:00 7.46 6120 75100 (1952) 986 (1977) 19500 6510 8530 9770 10300 14100 25300 28600 39400 49400
2026-04-30 10:00 7.45 6090 75100 (1952) 986 (1977) 19500 6510 8530 9770 10300 14100 25300 28600 39400 49400
2026-04-30 09:00 7.45 6090 75100 (1952) 986 (1977) 19500 6510 8530 9770 10300 14100 25300 28600 39400 49400
2026-04-30 08:00 7.45 6090 75100 (1952) 986 (1977) 19500 6510 8530 9770 10300 14100 25300 28600 39400 49400
2026-04-30 07:00 7.47 6150 75100 (1952) 986 (1977) 19500 6510 8530 9770 10300 14100 25300 28600 39400 49400
2026-04-30 06:00 7.48 6180 75100 (1952) 986 (1977) 19500 6510 8530 9770 10300 14100 25300 28600 39400 49400
2026-04-30 05:00 7.49 6210 75100 (1952) 986 (1977) 19500 6510 8530 9770 10300 14100 25300 28600 39400 49400
2026-04-30 04:00 7.53 6320 75100 (1952) 986 (1977) 19500 6510 8530 9770 10300 14100 25300 28600 39400 49400
2026-04-30 03:00 7.58 6470 75100 (1952) 986 (1977) 19500 6510 8530 9770 10300 14100 25300 28600 39400 49400
2026-04-30 02:00 7.68 6780 75100 (1952) 986 (1977) 19500 6510 8530 9770 10300 14100 25300 28600 39400 49400
2026-04-30 01:00 7.80 7150 75100 (1952) 986 (1977) 19500 6510 8530 9770 10300 14100 25300 28600 39400 49400
2026-04-30 00:00 7.97 7700 75100 (1952) 986 (1977) 19500 6510 8530 9770 10300 14100 25300 28600 39400 49400
2026-04-29 23:00 8.09 8110 75100 (1952) 986 (1977) 19500 6510 8530 9770 10300 14100 25300 28600 39400 49400
2026-04-29 22:00 8.12 8210 68500 (1952) 1030 (1963) 19500 6720 8850 10000 10300 13800 24400 28800 40100 50400
2026-04-29 21:00 8.11 8170 68500 (1952) 1030 (1963) 19500 6720 8850 10000 10300 13800 24400 28800 40100 50400
2026-04-29 20:00 8.11 8170 68500 (1952) 1030 (1963) 19500 6720 8850 10000 10300 13800 24400 28800 40100 50400
2026-04-29 19:00 8.11 8170 68500 (1952) 1030 (1963) 19500 6720 8850 10000 10300 13800 24400 28800 40100 50400
2026-04-29 18:00 8.11 8170 68500 (1952) 1030 (1963) 19500 6720 8850 10000 10300 13800 24400 28800 40100 50400
2026-04-29 17:00 8.08 8070 68500 (1952) 1030 (1963) 19500 6720 8850 10000 10300 13800 24400 28800 40100 50400
2026-04-29 16:00 8.06 8000 68500 (1952) 1030 (1963) 19500 6720 8850 10000 10300 13800 24400 28800 40100 50400
2026-04-29 15:00 8.02 7870 68500 (1952) 1030 (1963) 19500 6720 8850 10000 10300 13800 24400 28800 40100 50400
2026-04-29 14:00 7.92 7540 68500 (1952) 1030 (1963) 19500 6720 8850 10000 10300 13800 24400 28800 40100 50400
2026-04-29 13:00 7.80 7150 68500 (1952) 1030 (1963) 19500 6720 8850 10000 10300 13800 24400 28800 40100 50400
2026-04-29 12:00 7.62 6590 68500 (1952) 1030 (1963) 19500 6720 8850 10000 10300 13800 24400 28800 40100 50400
2026-04-29 11:00 7.48 6180 68500 (1952) 1030 (1963) 19500 6720 8850 10000 10300 13800 24400 28800 40100 50400
2026-04-29 10:00 7.45 6090 68500 (1952) 1030 (1963) 19500 6720 8850 10000 10300 13800 24400 28800 40100 50400
2026-04-29 09:00 7.46 6120 68500 (1952) 1030 (1963) 19500 6720 8850 10000 10300 13800 24400 28800 40100 50400
2026-04-29 08:00 7.47 6150 68500 (1952) 1030 (1963) 19500 6720 8850 10000 10300 13800 24400 28800 40100 50400
2026-04-29 07:00 7.47 6150 68500 (1952) 1030 (1963) 19500 6720 8850 10000 10300 13800 24400 28800 40100 50400
2026-04-29 06:00 7.49 6210 68500 (1952) 1030 (1963) 19500 6720 8850 10000 10300 13800 24400 28800 40100 50400
2026-04-29 05:00 7.50 6240 68500 (1952) 1030 (1963) 19500 6720 8850 10000 10300 13800 24400 28800 40100 50400
2026-04-29 04:00 7.53 6320 68500 (1952) 1030 (1963) 19500 6720 8850 10000 10300 13800 24400 28800 40100 50400
2026-04-29 03:00 7.59 6500 68500 (1952) 1030 (1963) 19500 6720 8850 10000 10300 13800 24400 28800 40100 50400
2026-04-29 02:00 7.67 6740 68500 (1952) 1030 (1963) 19500 6720 8850 10000 10300 13800 24400 28800 40100 50400
2026-04-29 01:00 7.80 7150 68500 (1952) 1030 (1963) 19500 6720 8850 10000 10300 13800 24400 28800 40100 50400
2026-04-29 00:00 7.97 7700 68500 (1952) 1030 (1963) 19500 6720 8850 10000 10300 13800 24400 28800 40100 50400
2026-04-28 23:00 8.09 8110 68500 (1952) 1030 (1963) 19500 6720 8850 10000 10300 13800 24400 28800 40100 50400
2026-04-28 22:00 8.10 8140 65700 (1938) 1020 (1963) 19400 6650 8720 9520 10100 13500 23500 28100 40000 50600
2026-04-28 21:00 8.10 8140 65700 (1938) 1020 (1963) 19400 6650 8720 9520 10100 13500 23500 28100 40000 50600
2026-04-28 20:00 8.10 8140 65700 (1938) 1020 (1963) 19400 6650 8720 9520 10100 13500 23500 28100 40000 50600
2026-04-28 19:00 8.10 8140 65700 (1938) 1020 (1963) 19400 6650 8720 9520 10100 13500 23500 28100 40000 50600
2026-04-28 18:00 8.09 8110 65700 (1938) 1020 (1963) 19400 6650 8720 9520 10100 13500 23500 28100 40000 50600
2026-04-28 17:00 8.08 8070 65700 (1938) 1020 (1963) 19400 6650 8720 9520 10100 13500 23500 28100 40000 50600
2026-04-28 16:00 8.06 8000 65700 (1938) 1020 (1963) 19400 6650 8720 9520 10100 13500 23500 28100 40000 50600
2026-04-28 15:00 8.01 7840 65700 (1938) 1020 (1963) 19400 6650 8720 9520 10100 13500 23500 28100 40000 50600
2026-04-28 14:00 7.94 7600 65700 (1938) 1020 (1963) 19400 6650 8720 9520 10100 13500 23500 28100 40000 50600
2026-04-28 13:00 7.80 7150 65700 (1938) 1020 (1963) 19400 6650 8720 9520 10100 13500 23500 28100 40000 50600
2026-04-28 12:00 7.62 6590 65700 (1938) 1020 (1963) 19400 6650 8720 9520 10100 13500 23500 28100 40000 50600
2026-04-28 11:00 7.49 6210 65700 (1938) 1020 (1963) 19400 6650 8720 9520 10100 13500 23500 28100 40000 50600
2026-04-28 10:00 7.46 6120 65700 (1938) 1020 (1963) 19400 6650 8720 9520 10100 13500 23500 28100 40000 50600
2026-04-28 09:00 7.47 6150 65700 (1938) 1020 (1963) 19400 6650 8720 9520 10100 13500 23500 28100 40000 50600
2026-04-28 08:00 7.47 6150 65700 (1938) 1020 (1963) 19400 6650 8720 9520 10100 13500 23500 28100 40000 50600
2026-04-28 07:00 7.48 6180 65700 (1938) 1020 (1963) 19400 6650 8720 9520 10100 13500 23500 28100 40000 50600
2026-04-28 06:00 7.48 6180 65700 (1938) 1020 (1963) 19400 6650 8720 9520 10100 13500 23500 28100 40000 50600
2026-04-28 05:00 7.50 6240 65700 (1938) 1020 (1963) 19400 6650 8720 9520 10100 13500 23500 28100 40000 50600
2026-04-28 04:00 7.54 6350 65700 (1938) 1020 (1963) 19400 6650 8720 9520 10100 13500 23500 28100 40000 50600
2026-04-28 03:00 7.60 6530 65700 (1938) 1020 (1963) 19400 6650 8720 9520 10100 13500 23500 28100 40000 50600
2026-04-28 02:00 7.66 6710 65700 (1938) 1020 (1963) 19400 6650 8720 9520 10100 13500 23500 28100 40000 50600
2026-04-28 01:00 7.78 7090 65700 (1938) 1020 (1963) 19400 6650 8720 9520 10100 13500 23500 28100 40000 50600
2026-04-28 00:00 7.95 7640 65700 (1938) 1020 (1963) 19400 6650 8720 9520 10100 13500 23500 28100 40000 50600
2026-04-27 23:00 8.07 8040 65700 (1938) 1020 (1963) 19400 6650 8720 9520 10100 13500 23500 28100 40000 50600
2026-04-27 22:00 8.07 8040 65100 (1942) 1020 (1963) 19400 6510 7890 10100 10400 13400 24600 31300 40900 49700
2026-04-27 21:00 8.09 8110 65100 (1942) 1020 (1963) 19400 6510 7890 10100 10400 13400 24600 31300 40900 49700
2026-04-27 20:00 8.11 8170 65100 (1942) 1020 (1963) 19400 6510 7890 10100 10400 13400 24600 31300 40900 49700
2026-04-27 19:00 8.10 8140 65100 (1942) 1020 (1963) 19400 6510 7890 10100 10400 13400 24600 31300 40900 49700
2026-04-27 18:00 8.11 8170 65100 (1942) 1020 (1963) 19400 6510 7890 10100 10400 13400 24600 31300 40900 49700
2026-04-27 17:00 8.06 8000 65100 (1942) 1020 (1963) 19400 6510 7890 10100 10400 13400 24600 31300 40900 49700
2026-04-27 16:00 8.04 7940 65100 (1942) 1020 (1963) 19400 6510 7890 10100 10400 13400 24600 31300 40900 49700
2026-04-27 15:00 8.01 7840 65100 (1942) 1020 (1963) 19400 6510 7890 10100 10400 13400 24600 31300 40900 49700
2026-04-27 14:00 7.91 7500 65100 (1942) 1020 (1963) 19400 6510 7890 10100 10400 13400 24600 31300 40900 49700
2026-04-27 13:00 7.81 7180 65100 (1942) 1020 (1963) 19400 6510 7890 10100 10400 13400 24600 31300 40900 49700
2026-04-27 12:00 7.63 6620 65100 (1942) 1020 (1963) 19400 6510 7890 10100 10400 13400 24600 31300 40900 49700
2026-04-27 11:00 7.49 6210 65100 (1942) 1020 (1963) 19400 6510 7890 10100 10400 13400 24600 31300 40900 49700
2026-04-27 10:00 7.46 6120 65100 (1942) 1020 (1963) 19400 6510 7890 10100 10400 13400 24600 31300 40900 49700
2026-04-27 09:00 7.45 6090 65100 (1942) 1020 (1963) 19400 6510 7890 10100 10400 13400 24600 31300 40900 49700
2026-04-27 08:00 7.46 6120 65100 (1942) 1020 (1963) 19400 6510 7890 10100 10400 13400 24600 31300 40900 49700
2026-04-27 07:00 7.47 6150 65100 (1942) 1020 (1963) 19400 6510 7890 10100 10400 13400 24600 31300 40900 49700
2026-04-27 06:00 7.47 6150 65100 (1942) 1020 (1963) 19400 6510 7890 10100 10400 13400 24600 31300 40900 49700
2026-04-27 05:00 7.49 6210 65100 (1942) 1020 (1963) 19400 6510 7890 10100 10400 13400 24600 31300 40900 49700
2026-04-27 04:00 7.52 6290 65100 (1942) 1020 (1963) 19400 6510 7890 10100 10400 13400 24600 31300 40900 49700
2026-04-27 03:00 7.58 6470 65100 (1942) 1020 (1963) 19400 6510 7890 10100 10400 13400 24600 31300 40900 49700
2026-04-27 02:00 7.68 6780 65100 (1942) 1020 (1963) 19400 6510 7890 10100 10400 13400 24600 31300 40900 49700
2026-04-27 01:00 7.82 7210 65100 (1942) 1020 (1963) 19400 6510 7890 10100 10400 13400 24600 31300 40900 49700
2026-04-27 00:00 7.98 7740 65100 (1942) 1020 (1963) 19400 6510 7890 10100 10400 13400 24600 31300 40900 49700
2026-04-26 23:00 8.07 8040 65100 (1942) 1020 (1963) 19400 6510 7890 10100 10400 13400 24600 31300 40900 49700
2026-04-26 22:00 8.10 8140 68200 (1942) 1030 (1963) 19400 6640 8000 9600 10200 13500 25200 29700 40100 50900
2026-04-26 21:00 8.09 8110 68200 (1942) 1030 (1963) 19400 6640 8000 9600 10200 13500 25200 29700 40100 50900
2026-04-26 20:00 8.11 8170 68200 (1942) 1030 (1963) 19400 6640 8000 9600 10200 13500 25200 29700 40100 50900
2026-04-26 19:00 8.12 8210 68200 (1942) 1030 (1963) 19400 6640 8000 9600 10200 13500 25200 29700 40100 50900
2026-04-26 18:00 8.11 8170 68200 (1942) 1030 (1963) 19400 6640 8000 9600 10200 13500 25200 29700 40100 50900
2026-04-26 17:00 8.07 8040 68200 (1942) 1030 (1963) 19400 6640 8000 9600 10200 13500 25200 29700 40100 50900
2026-04-26 16:00 8.06 8000 68200 (1942) 1030 (1963) 19400 6640 8000 9600 10200 13500 25200 29700 40100 50900
2026-04-26 15:00 8.00 7800 68200 (1942) 1030 (1963) 19400 6640 8000 9600 10200 13500 25200 29700 40100 50900
2026-04-26 14:00 7.91 7500 68200 (1942) 1030 (1963) 19400 6640 8000 9600 10200 13500 25200 29700 40100 50900
2026-04-26 13:00 7.79 7120 68200 (1942) 1030 (1963) 19400 6640 8000 9600 10200 13500 25200 29700 40100 50900
2026-04-26 12:00 7.60 6530 68200 (1942) 1030 (1963) 19400 6640 8000 9600 10200 13500 25200 29700 40100 50900
2026-04-26 11:00 7.48 6180 68200 (1942) 1030 (1963) 19400 6640 8000 9600 10200 13500 25200 29700 40100 50900
2026-04-26 10:00 7.45 6090 68200 (1942) 1030 (1963) 19400 6640 8000 9600 10200 13500 25200 29700 40100 50900
2026-04-26 09:00 7.46 6120 68200 (1942) 1030 (1963) 19400 6640 8000 9600 10200 13500 25200 29700 40100 50900
2026-04-26 08:00 7.46 6120 68200 (1942) 1030 (1963) 19400 6640 8000 9600 10200 13500 25200 29700 40100 50900
2026-04-26 07:00 7.47 6150 68200 (1942) 1030 (1963) 19400 6640 8000 9600 10200 13500 25200 29700 40100 50900
2026-04-26 06:00 7.48 6180 68200 (1942) 1030 (1963) 19400 6640 8000 9600 10200 13500 25200 29700 40100 50900
2026-04-26 05:00 7.50 6240 68200 (1942) 1030 (1963) 19400 6640 8000 9600 10200 13500 25200 29700 40100 50900
2026-04-26 04:00 7.53 6320 68200 (1942) 1030 (1963) 19400 6640 8000 9600 10200 13500 25200 29700 40100 50900
2026-04-26 03:00 7.57 6440 68200 (1942) 1030 (1963) 19400 6640 8000 9600 10200 13500 25200 29700 40100 50900
2026-04-26 02:00 7.68 6780 68200 (1942) 1030 (1963) 19400 6640 8000 9600 10200 13500 25200 29700 40100 50900
2026-04-26 01:00 7.81 7180 68200 (1942) 1030 (1963) 19400 6640 8000 9600 10200 13500 25200 29700 40100 50900
2026-04-26 00:00 7.98 7740 68200 (1942) 1030 (1963) 19400 6640 8000 9600 10200 13500 25200 29700 40100 50900
2026-04-25 23:00 8.10 8140 68200 (1942) 1030 (1963) 19400 6640 8000 9600 10200 13500 25200 29700 40100 50900
2026-04-25 22:00 8.11 8170 62100 (1942) 1020 (1963) 19000 6650 7890 9700 10000 13200 24400 28600 40200 56100
2026-04-25 21:00 8.11 8170 62100 (1942) 1020 (1963) 19000 6650 7890 9700 10000 13200 24400 28600 40200 56100
2026-04-25 20:00 8.10 8140 62100 (1942) 1020 (1963) 19000 6650 7890 9700 10000 13200 24400 28600 40200 56100
2026-04-25 19:00 8.11 8170 62100 (1942) 1020 (1963) 19000 6650 7890 9700 10000 13200 24400 28600 40200 56100
2026-04-25 18:00 8.08 8070 62100 (1942) 1020 (1963) 19000 6650 7890 9700 10000 13200 24400 28600 40200 56100
2026-04-25 17:00 8.08 8070 62100 (1942) 1020 (1963) 19000 6650 7890 9700 10000 13200 24400 28600 40200 56100
2026-04-25 16:00 8.05 7970 62100 (1942) 1020 (1963) 19000 6650 7890 9700 10000 13200 24400 28600 40200 56100
2026-04-25 15:00 8.00 7800 62100 (1942) 1020 (1963) 19000 6650 7890 9700 10000 13200 24400 28600 40200 56100
2026-04-25 14:00 7.92 7540 62100 (1942) 1020 (1963) 19000 6650 7890 9700 10000 13200 24400 28600 40200 56100
2026-04-25 13:00 7.80 7150 62100 (1942) 1020 (1963) 19000 6650 7890 9700 10000 13200 24400 28600 40200 56100
2026-04-25 12:00 7.62 6590 62100 (1942) 1020 (1963) 19000 6650 7890 9700 10000 13200 24400 28600 40200 56100
2026-04-25 11:00 7.48 6180 62100 (1942) 1020 (1963) 19000 6650 7890 9700 10000 13200 24400 28600 40200 56100
2026-04-25 10:00 7.46 6120 62100 (1942) 1020 (1963) 19000 6650 7890 9700 10000 13200 24400 28600 40200 56100
2026-04-25 09:00 7.46 6120 62100 (1942) 1020 (1963) 19000 6650 7890 9700 10000 13200 24400 28600 40200 56100
2026-04-25 08:00 7.46 6120 62100 (1942) 1020 (1963) 19000 6650 7890 9700 10000 13200 24400 28600 40200 56100
2026-04-25 07:00 7.47 6150 62100 (1942) 1020 (1963) 19000 6650 7890 9700 10000 13200 24400 28600 40200 56100
2026-04-25 06:00 7.48 6180 62100 (1942) 1020 (1963) 19000 6650 7890 9700 10000 13200 24400 28600 40200 56100
2026-04-25 05:00 7.49 6210 62100 (1942) 1020 (1963) 19000 6650 7890 9700 10000 13200 24400 28600 40200 56100
2026-04-25 04:00 7.52 6290 62100 (1942) 1020 (1963) 19000 6650 7890 9700 10000 13200 24400 28600 40200 56100
2026-04-25 03:00 7.59 6500 62100 (1942) 1020 (1963) 19000 6650 7890 9700 10000 13200 24400 28600 40200 56100
2026-04-25 02:00 7.68 6780 62100 (1942) 1020 (1963) 19000 6650 7890 9700 10000 13200 24400 28600 40200 56100
2026-04-25 01:00 7.83 7250 62100 (1942) 1020 (1963) 19000 6650 7890 9700 10000 13200 24400 28600 40200 56100
2026-04-25 00:00 7.97 7700 62100 (1942) 1020 (1963) 19000 6650 7890 9700 10000 13200 24400 28600 40200 56100
2026-04-24 23:00 8.09 8110 62100 (1942) 1020 (1963) 19000 6650 7890 9700 10000 13200 24400 28600 40200 56100
2026-04-24 22:00 8.09 8110 60800 (1962) 986 (1977) 18100 6630 7820 9460 10300 13200 21900 28400 39400 52300
2026-04-24 21:00 8.09 8110 60800 (1962) 986 (1977) 18100 6630 7820 9460 10300 13200 21900 28400 39400 52300
2026-04-24 20:00 8.10 8140 60800 (1962) 986 (1977) 18100 6630 7820 9460 10300 13200 21900 28400 39400 52300
2026-04-24 19:00 8.09 8110 60800 (1962) 986 (1977) 18100 6630 7820 9460 10300 13200 21900 28400 39400 52300
2026-04-24 18:00 8.09 8110 60800 (1962) 986 (1977) 18100 6630 7820 9460 10300 13200 21900 28400 39400 52300
2026-04-24 17:00 8.07 8040 60800 (1962) 986 (1977) 18100 6630 7820 9460 10300 13200 21900 28400 39400 52300
2026-04-24 16:00 8.05 7970 60800 (1962) 986 (1977) 18100 6630 7820 9460 10300 13200 21900 28400 39400 52300
2026-04-24 15:00 8.00 7800 60800 (1962) 986 (1977) 18100 6630 7820 9460 10300 13200 21900 28400 39400 52300
2026-04-24 14:00 7.93 7570 60800 (1962) 986 (1977) 18100 6630 7820 9460 10300 13200 21900 28400 39400 52300
2026-04-24 13:00 7.80 7150 60800 (1962) 986 (1977) 18100 6630 7820 9460 10300 13200 21900 28400 39400 52300
2026-04-24 12:00 7.62 6590 60800 (1962) 986 (1977) 18100 6630 7820 9460 10300 13200 21900 28400 39400 52300
2026-04-24 11:00 7.48 6180 60800 (1962) 986 (1977) 18100 6630 7820 9460 10300 13200 21900 28400 39400 52300
2026-04-24 10:00 7.45 6090 60800 (1962) 986 (1977) 18100 6630 7820 9460 10300 13200 21900 28400 39400 52300
2026-04-24 09:00 7.46 6120 60800 (1962) 986 (1977) 18100 6630 7820 9460 10300 13200 21900 28400 39400 52300
2026-04-24 08:00 7.46 6120 60800 (1962) 986 (1977) 18100 6630 7820 9460 10300 13200 21900 28400 39400 52300
2026-04-24 07:00 7.47 6150 60800 (1962) 986 (1977) 18100 6630 7820 9460 10300 13200 21900 28400 39400 52300
2026-04-24 06:00 7.48 6180 60800 (1962) 986 (1977) 18100 6630 7820 9460 10300 13200 21900 28400 39400 52300
2026-04-24 05:00 7.50 6240 60800 (1962) 986 (1977) 18100 6630 7820 9460 10300 13200 21900 28400 39400 52300
2026-04-24 04:00 7.52 6290 60800 (1962) 986 (1977) 18100 6630 7820 9460 10300 13200 21900 28400 39400 52300
2026-04-24 03:00 7.58 6470 60800 (1962) 986 (1977) 18100 6630 7820 9460 10300 13200 21900 28400 39400 52300
2026-04-24 02:00 7.67 6740 60800 (1962) 986 (1977) 18100 6630 7820 9460 10300 13200 21900 28400 39400 52300
2026-04-24 01:00 7.81 7180 60800 (1962) 986 (1977) 18100 6630 7820 9460 10300 13200 21900 28400 39400 52300
2026-04-24 00:00 7.97 7700 60800 (1962) 986 (1977) 18100 6630 7820 9460 10300 13200 21900 28400 39400 52300
2026-04-23 23:00 8.08 8070 60800 (1962) 986 (1977) 18100 6630 7820 9460 10300 13200 21900 28400 39400 52300
2026-04-23 22:00 8.11 8170 58600 (1962) 1010 (1963) 17400 7060 7890 9650 10300 12600 20700 25900 39300 45900
2026-04-23 21:00 8.09 8110 58600 (1962) 1010 (1963) 17400 7060 7890 9650 10300 12600 20700 25900 39300 45900
2026-04-23 20:00 8.09 8110 58600 (1962) 1010 (1963) 17400 7060 7890 9650 10300 12600 20700 25900 39300 45900
2026-04-23 19:00 8.09 8110 58600 (1962) 1010 (1963) 17400 7060 7890 9650 10300 12600 20700 25900 39300 45900
2026-04-23 18:00 8.08 8070 58600 (1962) 1010 (1963) 17400 7060 7890 9650 10300 12600 20700 25900 39300 45900
2026-04-23 17:00 8.08 8070 58600 (1962) 1010 (1963) 17400 7060 7890 9650 10300 12600 20700 25900 39300 45900
2026-04-23 16:00 8.05 7970 58600 (1962) 1010 (1963) 17400 7060 7890 9650 10300 12600 20700 25900 39300 45900
2026-04-23 15:00 8.00 7800 58600 (1962) 1010 (1963) 17400 7060 7890 9650 10300 12600 20700 25900 39300 45900
2026-04-23 14:00 7.93 7570 58600 (1962) 1010 (1963) 17400 7060 7890 9650 10300 12600 20700 25900 39300 45900
2026-04-23 13:00 7.80 7150 58600 (1962) 1010 (1963) 17400 7060 7890 9650 10300 12600 20700 25900 39300 45900
2026-04-23 12:00 7.63 6620 58600 (1962) 1010 (1963) 17400 7060 7890 9650 10300 12600 20700 25900 39300 45900
2026-04-23 11:00 7.49 6210 58600 (1962) 1010 (1963) 17400 7060 7890 9650 10300 12600 20700 25900 39300 45900
2026-04-23 10:00 7.49 6210 58600 (1962) 1010 (1963) 17400 7060 7890 9650 10300 12600 20700 25900 39300 45900
2026-04-23 09:00 7.52 6290 58600 (1962) 1010 (1963) 17400 7060 7890 9650 10300 12600 20700 25900 39300 45900
2026-04-23 08:00 7.58 6470 58600 (1962) 1010 (1963) 17400 7060 7890 9650 10300 12600 20700 25900 39300 45900
2026-04-23 07:00 7.65 6680 58600 (1962) 1010 (1963) 17400 7060 7890 9650 10300 12600 20700 25900 39300 45900
2026-04-23 06:00 7.79 7120 58600 (1962) 1010 (1963) 17400 7060 7890 9650 10300 12600 20700 25900 39300 45900
2026-04-23 05:00 7.96 7670 58600 (1962) 1010 (1963) 17400 7060 7890 9650 10300 12600 20700 25900 39300 45900
2026-04-23 04:00 8.11 8170 58600 (1962) 1010 (1963) 17400 7060 7890 9650 10300 12600 20700 25900 39300 45900
2026-04-23 03:00 8.17 8380 58600 (1962) 1010 (1963) 17400 7060 7890 9650 10300 12600 20700 25900 39300 45900
2026-04-23 02:00 8.24 8630 58600 (1962) 1010 (1963) 17400 7060 7890 9650 10300 12600 20700 25900 39300 45900
2026-04-23 01:00 8.29 8810 58600 (1962) 1010 (1963) 17400 7060 7890 9650 10300 12600 20700 25900 39300 45900
2026-04-23 00:00 8.31 8880 58600 (1962) 1010 (1963) 17400 7060 7890 9650 10300 12600 20700 25900 39300 45900
2026-04-22 23:00 8.24 8630 58600 (1962) 1010 (1963) 17400 7060 7890 9650 10300 12600 20700 25900 39300 45900
2026-04-22 22:00 8.16 8350 53300 (1962) 1020 (1963) 16700 6610 7590 9110 9820 12000 19000 25100 36600 42800
2026-04-22 21:00 8.16 8350 53300 (1962) 1020 (1963) 16700 6610 7590 9110 9820 12000 19000 25100 36600 42800
2026-04-22 20:00 8.12 8210 53300 (1962) 1020 (1963) 16700 6610 7590 9110 9820 12000 19000 25100 36600 42800
2026-04-22 19:00 8.13 8240 53300 (1962) 1020 (1963) 16700 6610 7590 9110 9820 12000 19000 25100 36600 42800
2026-04-22 18:00 8.11 8170 53300 (1962) 1020 (1963) 16700 6610 7590 9110 9820 12000 19000 25100 36600 42800
2026-04-22 17:00 8.13 8240 53300 (1962) 1020 (1963) 16700 6610 7590 9110 9820 12000 19000 25100 36600 42800
2026-04-22 16:00 8.12 8210 53300 (1962) 1020 (1963) 16700 6610 7590 9110 9820 12000 19000 25100 36600 42800
2026-04-22 15:00 8.12 8210 53300 (1962) 1020 (1963) 16700 6610 7590 9110 9820 12000 19000 25100 36600 42800
2026-04-22 14:00 8.12 8210 53300 (1962) 1020 (1963) 16700 6610 7590 9110 9820 12000 19000 25100 36600 42800
2026-04-22 13:00 8.13 8240 53300 (1962) 1020 (1963) 16700 6610 7590 9110 9820 12000 19000 25100 36600 42800
2026-04-22 12:00 8.13 8240 53300 (1962) 1020 (1963) 16700 6610 7590 9110 9820 12000 19000 25100 36600 42800
2026-04-22 11:00 8.12 8210 53300 (1962) 1020 (1963) 16700 6610 7590 9110 9820 12000 19000 25100 36600 42800
2026-04-22 10:00 8.10 8140 53300 (1962) 1020 (1963) 16700 6610 7590 9110 9820 12000 19000 25100 36600 42800
2026-04-22 09:00 8.08 8070 53300 (1962) 1020 (1963) 16700 6610 7590 9110 9820 12000 19000 25100 36600 42800
2026-04-22 08:00 8.08 8070 53300 (1962) 1020 (1963) 16700 6610 7590 9110 9820 12000 19000 25100 36600 42800
2026-04-22 07:00 8.06 8000 53300 (1962) 1020 (1963) 16700 6610 7590 9110 9820 12000 19000 25100 36600 42800
2026-04-22 06:00 8.07 8040 53300 (1962) 1020 (1963) 16700 6610 7590 9110 9820 12000 19000 25100 36600 42800
2026-04-22 05:00 8.09 8110 53300 (1962) 1020 (1963) 16700 6610 7590 9110 9820 12000 19000 25100 36600 42800
2026-04-22 04:00 8.12 8210 53300 (1962) 1020 (1963) 16700 6610 7590 9110 9820 12000 19000 25100 36600 42800
2026-04-22 03:00 8.17 8380 53300 (1962) 1020 (1963) 16700 6610 7590 9110 9820 12000 19000 25100 36600 42800
2026-04-22 02:00 8.23 8590 53300 (1962) 1020 (1963) 16700 6610 7590 9110 9820 12000 19000 25100 36600 42800
2026-04-22 01:00 8.29 8810 53300 (1962) 1020 (1963) 16700 6610 7590 9110 9820 12000 19000 25100 36600 42800
2026-04-22 00:00 8.30 8840 53300 (1962) 1020 (1963) 16700 6610 7590 9110 9820 12000 19000 25100 36600 42800
2026-04-21 23:00 8.25 8660 53300 (1962) 1020 (1963) 16700 6610 7590 9110 9820 12000 19000 25100 36600 42800
2026-04-21 22:00 8.18 8420 59600 (1942) 1010 (1963) 16600 6670 7610 9140 9830 12300 17900 25600 33300 41300
2026-04-21 21:00 8.16 8350 59600 (1942) 1010 (1963) 16600 6670 7610 9140 9830 12300 17900 25600 33300 41300
2026-04-21 20:00 8.15 8310 59600 (1942) 1010 (1963) 16600 6670 7610 9140 9830 12300 17900 25600 33300 41300
2026-04-21 19:00 8.14 8280 59600 (1942) 1010 (1963) 16600 6670 7610 9140 9830 12300 17900 25600 33300 41300
2026-04-21 18:00 8.13 8240 59600 (1942) 1010 (1963) 16600 6670 7610 9140 9830 12300 17900 25600 33300 41300
2026-04-21 17:00 8.12 8210 59600 (1942) 1010 (1963) 16600 6670 7610 9140 9830 12300 17900 25600 33300 41300
2026-04-21 16:00 8.11 8170 59600 (1942) 1010 (1963) 16600 6670 7610 9140 9830 12300 17900 25600 33300 41300
2026-04-21 15:00 8.11 8170 59600 (1942) 1010 (1963) 16600 6670 7610 9140 9830 12300 17900 25600 33300 41300
2026-04-21 14:00 8.12 8210 59600 (1942) 1010 (1963) 16600 6670 7610 9140 9830 12300 17900 25600 33300 41300
2026-04-21 13:00 8.12 8210 59600 (1942) 1010 (1963) 16600 6670 7610 9140 9830 12300 17900 25600 33300 41300
2026-04-21 12:00 8.12 8210 59600 (1942) 1010 (1963) 16600 6670 7610 9140 9830 12300 17900 25600 33300 41300
2026-04-21 11:00 8.11 8170 59600 (1942) 1010 (1963) 16600 6670 7610 9140 9830 12300 17900 25600 33300 41300
2026-04-21 10:00 8.09 8110 59600 (1942) 1010 (1963) 16600 6670 7610 9140 9830 12300 17900 25600 33300 41300
2026-04-21 09:00 8.06 8000 59600 (1942) 1010 (1963) 16600 6670 7610 9140 9830 12300 17900 25600 33300 41300
2026-04-21 08:00 8.07 8040 59600 (1942) 1010 (1963) 16600 6670 7610 9140 9830 12300 17900 25600 33300 41300
2026-04-21 07:00 8.08 8070 59600 (1942) 1010 (1963) 16600 6670 7610 9140 9830 12300 17900 25600 33300 41300
2026-04-21 06:00 8.09 8110 59600 (1942) 1010 (1963) 16600 6670 7610 9140 9830 12300 17900 25600 33300 41300
2026-04-21 05:00 8.13 8240 59600 (1942) 1010 (1963) 16600 6670 7610 9140 9830 12300 17900 25600 33300 41300
2026-04-21 04:00 8.16 8350 59600 (1942) 1010 (1963) 16600 6670 7610 9140 9830 12300 17900 25600 33300 41300
2026-04-21 03:00 8.21 8520 59600 (1942) 1010 (1963) 16600 6670 7610 9140 9830 12300 17900 25600 33300 41300
2026-04-21 02:00 8.28 8770 59600 (1942) 1010 (1963) 16600 6670 7610 9140 9830 12300 17900 25600 33300 41300
2026-04-21 01:00 8.36 9060 59600 (1942) 1010 (1963) 16600 6670 7610 9140 9830 12300 17900 25600 33300 41300
2026-04-21 00:00 8.37 9100 59600 (1942) 1010 (1963) 16600 6670 7610 9140 9830 12300 17900 25600 33300 41300
2026-04-20 23:00 8.30 8840 59600 (1942) 1010 (1963) 16600 6670 7610 9140 9830 12300 17900 25600 33300 41300
2026-04-20 22:00 8.22 8560 63900 (1942) 1010 (1963) 16200 6350 7370 9330 9880 12200 19200 22100 33700 38000
2026-04-20 21:00 8.20 8490 63900 (1942) 1010 (1963) 16200 6350 7370 9330 9880 12200 19200 22100 33700 38000
2026-04-20 20:00 8.18 8420 63900 (1942) 1010 (1963) 16200 6350 7370 9330 9880 12200 19200 22100 33700 38000
2026-04-20 19:00 8.16 8350 63900 (1942) 1010 (1963) 16200 6350 7370 9330 9880 12200 19200 22100 33700 38000
2026-04-20 18:00 8.16 8350 63900 (1942) 1010 (1963) 16200 6350 7370 9330 9880 12200 19200 22100 33700 38000
2026-04-20 17:00 8.15 8310 63900 (1942) 1010 (1963) 16200 6350 7370 9330 9880 12200 19200 22100 33700 38000
2026-04-20 16:00 8.17 8380 63900 (1942) 1010 (1963) 16200 6350 7370 9330 9880 12200 19200 22100 33700 38000
2026-04-20 15:00 8.16 8350 63900 (1942) 1010 (1963) 16200 6350 7370 9330 9880 12200 19200 22100 33700 38000
2026-04-20 14:00 8.16 8350 63900 (1942) 1010 (1963) 16200 6350 7370 9330 9880 12200 19200 22100 33700 38000
2026-04-20 13:00 8.16 8350 63900 (1942) 1010 (1963) 16200 6350 7370 9330 9880 12200 19200 22100 33700 38000
2026-04-20 12:00 8.16 8350 63900 (1942) 1010 (1963) 16200 6350 7370 9330 9880 12200 19200 22100 33700 38000
2026-04-20 11:00 8.14 8280 63900 (1942) 1010 (1963) 16200 6350 7370 9330 9880 12200 19200 22100 33700 38000
2026-04-20 10:00 8.13 8240 63900 (1942) 1010 (1963) 16200 6350 7370 9330 9880 12200 19200 22100 33700 38000
2026-04-20 09:00 8.10 8140 63900 (1942) 1010 (1963) 16200 6350 7370 9330 9880 12200 19200 22100 33700 38000
2026-04-20 08:00 8.11 8170 63900 (1942) 1010 (1963) 16200 6350 7370 9330 9880 12200 19200 22100 33700 38000
2026-04-20 07:00 8.10 8140 63900 (1942) 1010 (1963) 16200 6350 7370 9330 9880 12200 19200 22100 33700 38000
2026-04-20 06:00 8.09 8110 63900 (1942) 1010 (1963) 16200 6350 7370 9330 9880 12200 19200 22100 33700 38000
2026-04-20 05:00 8.10 8140 63900 (1942) 1010 (1963) 16200 6350 7370 9330 9880 12200 19200 22100 33700 38000
2026-04-20 04:00 8.11 8170 63900 (1942) 1010 (1963) 16200 6350 7370 9330 9880 12200 19200 22100 33700 38000
2026-04-20 03:00 8.15 8310 63900 (1942) 1010 (1963) 16200 6350 7370 9330 9880 12200 19200 22100 33700 38000
2026-04-20 02:00 8.19 8450 63900 (1942) 1010 (1963) 16200 6350 7370 9330 9880 12200 19200 22100 33700 38000
2026-04-20 01:00 8.25 8660 63900 (1942) 1010 (1963) 16200 6350 7370 9330 9880 12200 19200 22100 33700 38000
2026-04-20 00:00 8.29 8810 63900 (1942) 1010 (1963) 16200 6350 7370 9330 9880 12200 19200 22100 33700 38000
2026-04-19 23:00 8.24 8630 63900 (1942) 1010 (1963) 16200 6350 7370 9330 9880 12200 19200 22100 33700 38000
2026-04-19 22:00 8.18 8420 63500 (1942) 1010 (1963) 15800 6380 7950 9480 9920 11900 18200 21200 28900 39000
2026-04-19 21:00 8.15 8310 63500 (1942) 1010 (1963) 15800 6380 7950 9480 9920 11900 18200 21200 28900 39000
2026-04-19 20:00 8.14 8280 63500 (1942) 1010 (1963) 15800 6380 7950 9480 9920 11900 18200 21200 28900 39000
2026-04-19 19:00 8.14 8280 63500 (1942) 1010 (1963) 15800 6380 7950 9480 9920 11900 18200 21200 28900 39000
2026-04-19 18:00 8.14 8280 63500 (1942) 1010 (1963) 15800 6380 7950 9480 9920 11900 18200 21200 28900 39000
2026-04-19 17:00 8.13 8240 63500 (1942) 1010 (1963) 15800 6380 7950 9480 9920 11900 18200 21200 28900 39000
2026-04-19 16:00 8.14 8280 63500 (1942) 1010 (1963) 15800 6380 7950 9480 9920 11900 18200 21200 28900 39000
2026-04-19 15:00 8.14 8280 63500 (1942) 1010 (1963) 15800 6380 7950 9480 9920 11900 18200 21200 28900 39000
2026-04-19 14:00 8.14 8280 63500 (1942) 1010 (1963) 15800 6380 7950 9480 9920 11900 18200 21200 28900 39000
2026-04-19 13:00 8.14 8280 63500 (1942) 1010 (1963) 15800 6380 7950 9480 9920 11900 18200 21200 28900 39000
2026-04-19 12:00 8.13 8240 63500 (1942) 1010 (1963) 15800 6380 7950 9480 9920 11900 18200 21200 28900 39000
2026-04-19 11:00 8.10 8140 63500 (1942) 1010 (1963) 15800 6380 7950 9480 9920 11900 18200 21200 28900 39000
2026-04-19 10:00 8.10 8140 63500 (1942) 1010 (1963) 15800 6380 7950 9480 9920 11900 18200 21200 28900 39000
2026-04-19 09:00 8.07 8040 63500 (1942) 1010 (1963) 15800 6380 7950 9480 9920 11900 18200 21200 28900 39000
2026-04-19 08:00 8.07 8040 63500 (1942) 1010 (1963) 15800 6380 7950 9480 9920 11900 18200 21200 28900 39000
2026-04-19 07:00 8.07 8040 63500 (1942) 1010 (1963) 15800 6380 7950 9480 9920 11900 18200 21200 28900 39000
2026-04-19 06:00 8.08 8070 63500 (1942) 1010 (1963) 15800 6380 7950 9480 9920 11900 18200 21200 28900 39000
2026-04-19 05:00 8.10 8140 63500 (1942) 1010 (1963) 15800 6380 7950 9480 9920 11900 18200 21200 28900 39000
2026-04-19 04:00 8.11 8170 63500 (1942) 1010 (1963) 15800 6380 7950 9480 9920 11900 18200 21200 28900 39000
2026-04-19 03:00 8.15 8310 63500 (1942) 1010 (1963) 15800 6380 7950 9480 9920 11900 18200 21200 28900 39000
2026-04-19 02:00 8.19 8450 63500 (1942) 1010 (1963) 15800 6380 7950 9480 9920 11900 18200 21200 28900 39000
2026-04-19 01:00 8.25 8660 63500 (1942) 1010 (1963) 15800 6380 7950 9480 9920 11900 18200 21200 28900 39000
2026-04-19 00:00 8.28 8770 63500 (1942) 1010 (1963) 15800 6380 7950 9480 9920 11900 18200 21200 28900 39000
2026-04-18 23:00 8.23 8590 63500 (1942) 1010 (1963) 15800 6380 7950 9480 9920 11900 18200 21200 28900 39000
2026-04-18 22:00 8.18 8420 66100 (1942) 990 (1963) 15300 6850 8500 9730 10000 11600 17800 20100 27300 35200
2026-04-18 21:00 8.15 8310 66100 (1942) 990 (1963) 15300 6850 8500 9730 10000 11600 17800 20100 27300 35200
2026-04-18 20:00 8.13 8240 66100 (1942) 990 (1963) 15300 6850 8500 9730 10000 11600 17800 20100 27300 35200
2026-04-18 19:00 8.14 8280 66100 (1942) 990 (1963) 15300 6850 8500 9730 10000 11600 17800 20100 27300 35200
2026-04-18 18:00 8.11 8170 66100 (1942) 990 (1963) 15300 6850 8500 9730 10000 11600 17800 20100 27300 35200
2026-04-18 17:00 8.14 8280 66100 (1942) 990 (1963) 15300 6850 8500 9730 10000 11600 17800 20100 27300 35200
2026-04-18 16:00 8.14 8280 66100 (1942) 990 (1963) 15300 6850 8500 9730 10000 11600 17800 20100 27300 35200
2026-04-18 15:00 8.13 8240 66100 (1942) 990 (1963) 15300 6850 8500 9730 10000 11600 17800 20100 27300 35200
2026-04-18 14:00 8.15 8310 66100 (1942) 990 (1963) 15300 6850 8500 9730 10000 11600 17800 20100 27300 35200
2026-04-18 13:00 8.13 8240 66100 (1942) 990 (1963) 15300 6850 8500 9730 10000 11600 17800 20100 27300 35200
2026-04-18 12:00 8.14 8280 66100 (1942) 990 (1963) 15300 6850 8500 9730 10000 11600 17800 20100 27300 35200
2026-04-18 11:00 8.12 8210 66100 (1942) 990 (1963) 15300 6850 8500 9730 10000 11600 17800 20100 27300 35200
2026-04-18 10:00 8.10 8140 66100 (1942) 990 (1963) 15300 6850 8500 9730 10000 11600 17800 20100 27300 35200
2026-04-18 09:00 8.08 8070 66100 (1942) 990 (1963) 15300 6850 8500 9730 10000 11600 17800 20100 27300 35200
2026-04-18 08:00 8.08 8070 66100 (1942) 990 (1963) 15300 6850 8500 9730 10000 11600 17800 20100 27300 35200
2026-04-18 07:00 8.08 8070 66100 (1942) 990 (1963) 15300 6850 8500 9730 10000 11600 17800 20100 27300 35200
2026-04-18 06:00 8.09 8110 66100 (1942) 990 (1963) 15300 6850 8500 9730 10000 11600 17800 20100 27300 35200
2026-04-18 05:00 8.10 8140 66100 (1942) 990 (1963) 15300 6850 8500 9730 10000 11600 17800 20100 27300 35200
2026-04-18 04:00 8.13 8240 66100 (1942) 990 (1963) 15300 6850 8500 9730 10000 11600 17800 20100 27300 35200
2026-04-18 03:00 8.18 8420 66100 (1942) 990 (1963) 15300 6850 8500 9730 10000 11600 17800 20100 27300 35200
2026-04-18 02:00 8.26 8700 66100 (1942) 990 (1963) 15300 6850 8500 9730 10000 11600 17800 20100 27300 35200
2026-04-18 01:00 8.32 8910 66100 (1942) 990 (1963) 15300 6850 8500 9730 10000 11600 17800 20100 27300 35200
2026-04-18 00:00 8.35 9020 66100 (1942) 990 (1963) 15300 6850 8500 9730 10000 11600 17800 20100 27300 35200
2026-04-17 23:00 8.30 8840 66100 (1942) 990 (1963) 15300 6850 8500 9730 10000 11600 17800 20100 27300 35200
2026-04-17 22:00 8.20 8490 66800 (1942) 980 (1963) 15000 7430 8200 9310 9660 11600 17800 19300 26000 31100
2026-04-17 21:00 8.17 8380 66800 (1942) 980 (1963) 15000 7430 8200 9310 9660 11600 17800 19300 26000 31100
2026-04-17 20:00 8.14 8280 66800 (1942) 980 (1963) 15000 7430 8200 9310 9660 11600 17800 19300 26000 31100
2026-04-17 19:00 8.14 8280 66800 (1942) 980 (1963) 15000 7430 8200 9310 9660 11600 17800 19300 26000 31100
2026-04-17 18:00 8.10 8140 66800 (1942) 980 (1963) 15000 7430 8200 9310 9660 11600 17800 19300 26000 31100
2026-04-17 17:00 8.13 8240 66800 (1942) 980 (1963) 15000 7430 8200 9310 9660 11600 17800 19300 26000 31100
2026-04-17 16:00 8.14 8280 66800 (1942) 980 (1963) 15000 7430 8200 9310 9660 11600 17800 19300 26000 31100
2026-04-17 15:00 8.10 8140 66800 (1942) 980 (1963) 15000 7430 8200 9310 9660 11600 17800 19300 26000 31100
2026-04-17 14:00 8.14 8280 66800 (1942) 980 (1963) 15000 7430 8200 9310 9660 11600 17800 19300 26000 31100
2026-04-17 13:00 8.14 8280 66800 (1942) 980 (1963) 15000 7430 8200 9310 9660 11600 17800 19300 26000 31100
2026-04-17 12:00 8.10 8140 66800 (1942) 980 (1963) 15000 7430 8200 9310 9660 11600 17800 19300 26000 31100
2026-04-17 11:00 8.10 8140 66800 (1942) 980 (1963) 15000 7430 8200 9310 9660 11600 17800 19300 26000 31100
2026-04-17 10:00 8.07 8040 66800 (1942) 980 (1963) 15000 7430 8200 9310 9660 11600 17800 19300 26000 31100
2026-04-17 09:00 8.03 7900 66800 (1942) 980 (1963) 15000 7430 8200 9310 9660 11600 17800 19300 26000 31100
2026-04-17 08:00 8.02 7870 66800 (1942) 980 (1963) 15000 7430 8200 9310 9660 11600 17800 19300 26000 31100
2026-04-17 07:00 8.04 7940 66800 (1942) 980 (1963) 15000 7430 8200 9310 9660 11600 17800 19300 26000 31100
2026-04-17 06:00 8.03 7900 66800 (1942) 980 (1963) 15000 7430 8200 9310 9660 11600 17800 19300 26000 31100
2026-04-17 05:00 8.05 7970 66800 (1942) 980 (1963) 15000 7430 8200 9310 9660 11600 17800 19300 26000 31100
2026-04-17 04:00 8.08 8070 66800 (1942) 980 (1963) 15000 7430 8200 9310 9660 11600 17800 19300 26000 31100
2026-04-17 03:00 8.09 8110 66800 (1942) 980 (1963) 15000 7430 8200 9310 9660 11600 17800 19300 26000 31100
2026-04-17 02:00 8.17 8380 66800 (1942) 980 (1963) 15000 7430 8200 9310 9660 11600 17800 19300 26000 31100
2026-04-17 01:00 8.18 8420 66800 (1942) 980 (1963) 15000 7430 8200 9310 9660 11600 17800 19300 26000 31100
2026-04-17 00:00 8.20 8490 66800 (1942) 980 (1963) 15000 7430 8200 9310 9660 11600 17800 19300 26000 31100
2026-04-16 23:00 8.21 8520 66800 (1942) 980 (1963) 15000 7430 8200 9310 9660 11600 17800 19300 26000 31100
2026-04-16 22:00 8.20 8490 63700 (1942) 1010 (1963) 14700 6430 8180 8810 9430 11900 17800 19800 23900 29700
2026-04-16 21:00 8.19 8450 63700 (1942) 1010 (1963) 14700 6430 8180 8810 9430 11900 17800 19800 23900 29700
2026-04-16 20:00 8.20 8490 63700 (1942) 1010 (1963) 14700 6430 8180 8810 9430 11900 17800 19800 23900 29700
2026-04-16 19:00 8.18 8420 63700 (1942) 1010 (1963) 14700 6430 8180 8810 9430 11900 17800 19800 23900 29700
2026-04-16 18:00 8.20 8490 63700 (1942) 1010 (1963) 14700 6430 8180 8810 9430 11900 17800 19800 23900 29700
2026-04-16 17:00 8.21 8520 63700 (1942) 1010 (1963) 14700 6430 8180 8810 9430 11900 17800 19800 23900 29700
2026-04-16 16:00 8.18 8420 63700 (1942) 1010 (1963) 14700 6430 8180 8810 9430 11900 17800 19800 23900 29700
2026-04-16 15:00 8.19 8450 63700 (1942) 1010 (1963) 14700 6430 8180 8810 9430 11900 17800 19800 23900 29700
2026-04-16 14:00 8.17 8380 63700 (1942) 1010 (1963) 14700 6430 8180 8810 9430 11900 17800 19800 23900 29700
2026-04-16 13:00 8.15 8310 63700 (1942) 1010 (1963) 14700 6430 8180 8810 9430 11900 17800 19800 23900 29700
2026-04-16 12:00 8.14 8280 63700 (1942) 1010 (1963) 14700 6430 8180 8810 9430 11900 17800 19800 23900 29700
2026-04-16 11:00 8.11 8170 63700 (1942) 1010 (1963) 14700 6430 8180 8810 9430 11900 17800 19800 23900 29700
2026-04-16 10:00 8.08 8070 63700 (1942) 1010 (1963) 14700 6430 8180 8810 9430 11900 17800 19800 23900 29700
2026-04-16 09:00 8.08 8070 63700 (1942) 1010 (1963) 14700 6430 8180 8810 9430 11900 17800 19800 23900 29700
2026-04-16 08:00 8.09 8110 63700 (1942) 1010 (1963) 14700 6430 8180 8810 9430 11900 17800 19800 23900 29700
2026-04-16 07:00 8.09 8110 63700 (1942) 1010 (1963) 14700 6430 8180 8810 9430 11900 17800 19800 23900 29700
2026-04-16 06:00 8.08 8070 63700 (1942) 1010 (1963) 14700 6430 8180 8810 9430 11900 17800 19800 23900 29700
2026-04-16 05:00 8.11 8170 63700 (1942) 1010 (1963) 14700 6430 8180 8810 9430 11900 17800 19800 23900 29700
2026-04-16 04:00 8.11 8170 63700 (1942) 1010 (1963) 14700 6430 8180 8810 9430 11900 17800 19800 23900 29700
2026-04-16 03:00 8.14 8280 63700 (1942) 1010 (1963) 14700 6430 8180 8810 9430 11900 17800 19800 23900 29700
2026-04-16 02:00 8.16 8350 63700 (1942) 1010 (1963) 14700 6430 8180 8810 9430 11900 17800 19800 23900 29700
2026-04-16 01:00 8.19 8450 63700 (1942) 1010 (1963) 14700 6430 8180 8810 9430 11900 17800 19800 23900 29700
2026-04-16 00:00 8.20 8490 63700 (1942) 1010 (1963) 14700 6430 8180 8810 9430 11900 17800 19800 23900 29700
2026-04-15 23:00 8.20 8490 63700 (1942) 1010 (1963) 14700 6430 8180 8810 9430 11900 17800 19800 23900 29700
2026-04-15 22:00 8.21 8520 59900 (1942) 1020 (1963) 14600 6760 7650 9040 9400 11500 18100 19100 24100 30900
2026-04-15 21:00 8.20 8490 59900 (1942) 1020 (1963) 14600 6760 7650 9040 9400 11500 18100 19100 24100 30900
2026-04-15 20:00 8.19 8450 59900 (1942) 1020 (1963) 14600 6760 7650 9040 9400 11500 18100 19100 24100 30900
2026-04-15 19:00 8.19 8450 59900 (1942) 1020 (1963) 14600 6760 7650 9040 9400 11500 18100 19100 24100 30900
2026-04-15 18:00 8.19 8450 59900 (1942) 1020 (1963) 14600 6760 7650 9040 9400 11500 18100 19100 24100 30900
2026-04-15 17:00 8.19 8450 59900 (1942) 1020 (1963) 14600 6760 7650 9040 9400 11500 18100 19100 24100 30900
2026-04-15 16:00 8.20 8490 59900 (1942) 1020 (1963) 14600 6760 7650 9040 9400 11500 18100 19100 24100 30900
2026-04-15 15:00 8.18 8420 59900 (1942) 1020 (1963) 14600 6760 7650 9040 9400 11500 18100 19100 24100 30900
2026-04-15 14:00 8.18 8420 59900 (1942) 1020 (1963) 14600 6760 7650 9040 9400 11500 18100 19100 24100 30900
2026-04-15 13:00 8.17 8380 59900 (1942) 1020 (1963) 14600 6760 7650 9040 9400 11500 18100 19100 24100 30900
2026-04-15 12:00 8.14 8280 59900 (1942) 1020 (1963) 14600 6760 7650 9040 9400 11500 18100 19100 24100 30900
2026-04-15 11:00 8.11 8170 59900 (1942) 1020 (1963) 14600 6760 7650 9040 9400 11500 18100 19100 24100 30900
2026-04-15 10:00 8.08 8070 59900 (1942) 1020 (1963) 14600 6760 7650 9040 9400 11500 18100 19100 24100 30900
2026-04-15 09:00 8.08 8070 59900 (1942) 1020 (1963) 14600 6760 7650 9040 9400 11500 18100 19100 24100 30900
2026-04-15 08:00 8.08 7840 59900 (1942) 1020 (1963) 14600 6760 7650 9040 9400 11500 18100 19100 24100 30900
2026-04-15 07:00 8.08 7840 59900 (1942) 1020 (1963) 14600 6760 7650 9040 9400 11500 18100 19100 24100 30900
2026-04-15 06:00 8.09 7870 59900 (1942) 1020 (1963) 14600 6760 7650 9040 9400 11500 18100 19100 24100 30900
2026-04-15 05:00 8.10 7900 59900 (1942) 1020 (1963) 14600 6760 7650 9040 9400 11500 18100 19100 24100 30900
2026-04-15 04:00 8.12 7970 59900 (1942) 1020 (1963) 14600 6760 7650 9040 9400 11500 18100 19100 24100 30900
2026-04-15 03:00 8.14 8040 59900 (1942) 1020 (1963) 14600 6760 7650 9040 9400 11500 18100 19100 24100 30900
2026-04-15 02:00 8.18 8170 59900 (1942) 1020 (1963) 14600 6760 7650 9040 9400 11500 18100 19100 24100 30900
2026-04-15 01:00 8.20 8240 59900 (1942) 1020 (1963) 14600 6760 7650 9040 9400 11500 18100 19100 24100 30900
2026-04-15 00:00 8.20 8240 59900 (1942) 1020 (1963) 14600 6760 7650 9040 9400 11500 18100 19100 24100 30900
2026-04-14 23:00 8.20 8240 59900 (1942) 1020 (1963) 14600 6760 7650 9040 9400 11500 18100 19100 24100 30900
2026-04-14 22:00 8.20 8240 53400 (1942) 1020 (1963) 14600 6860 7790 8990 9390 11700 17800 20100 23500 33600
2026-04-14 21:00 8.20 8240 53400 (1942) 1020 (1963) 14600 6860 7790 8990 9390 11700 17800 20100 23500 33600
2026-04-14 20:00 8.19 8210 53400 (1942) 1020 (1963) 14600 6860 7790 8990 9390 11700 17800 20100 23500 33600
2026-04-14 19:00 8.18 8170 53400 (1942) 1020 (1963) 14600 6860 7790 8990 9390 11700 17800 20100 23500 33600
2026-04-14 18:00 8.19 8210 53400 (1942) 1020 (1963) 14600 6860 7790 8990 9390 11700 17800 20100 23500 33600
2026-04-14 17:00 8.17 8140 53400 (1942) 1020 (1963) 14600 6860 7790 8990 9390 11700 17800 20100 23500 33600
2026-04-14 16:00 8.16 8110 53400 (1942) 1020 (1963) 14600 6860 7790 8990 9390 11700 17800 20100 23500 33600
2026-04-14 15:00 8.15 8070 53400 (1942) 1020 (1963) 14600 6860 7790 8990 9390 11700 17800 20100 23500 33600
2026-04-14 14:00 8.16 8110 53400 (1942) 1020 (1963) 14600 6860 7790 8990 9390 11700 17800 20100 23500 33600
2026-04-14 13:00 8.16 8110 53400 (1942) 1020 (1963) 14600 6860 7790 8990 9390 11700 17800 20100 23500 33600
2026-04-14 12:00 8.14 8040 53400 (1942) 1020 (1963) 14600 6860 7790 8990 9390 11700 17800 20100 23500 33600
2026-04-14 10:00 8.08 7840 53400 (1942) 1020 (1963) 14600 6860 7790 8990 9390 11700 17800 20100 23500 33600
2026-04-14 09:00 8.07 7800 53400 (1942) 1020 (1963) 14600 6860 7790 8990 9390 11700 17800 20100 23500 33600
2026-04-14 08:00 8.08 7840 53400 (1942) 1020 (1963) 14600 6860 7790 8990 9390 11700 17800 20100 23500 33600
2026-04-14 07:00 8.09 7870 53400 (1942) 1020 (1963) 14600 6860 7790 8990 9390 11700 17800 20100 23500 33600
2026-04-14 06:00 8.09 7870 53400 (1942) 1020 (1963) 14600 6860 7790 8990 9390 11700 17800 20100 23500 33600
2026-04-14 05:00 8.09 7870 53400 (1942) 1020 (1963) 14600 6860 7790 8990 9390 11700 17800 20100 23500 33600
2026-04-14 04:00 8.12 7970 53400 (1942) 1020 (1963) 14600 6860 7790 8990 9390 11700 17800 20100 23500 33600
2026-04-14 03:00 8.15 8070 53400 (1942) 1020 (1963) 14600 6860 7790 8990 9390 11700 17800 20100 23500 33600
2026-04-14 02:00 8.18 8170 53400 (1942) 1020 (1963) 14600 6860 7790 8990 9390 11700 17800 20100 23500 33600
2026-04-14 01:00 8.19 8210 53400 (1942) 1020 (1963) 14600 6860 7790 8990 9390 11700 17800 20100 23500 33600
2026-04-14 00:00 8.20 8240 53400 (1942) 1020 (1963) 14600 6860 7790 8990 9390 11700 17800 20100 23500 33600
2026-04-13 23:00 8.17 8140 53400 (1942) 1020 (1963) 14600 6860 7790 8990 9390 11700 17800 20100 23500 33600
2026-04-13 22:00 8.17 8140 48000 (1942) 1010 (1963) 14500 6500 7700 8850 9440 11200 18500 19700 23500 31800
2026-04-13 21:00 8.20 8240 48000 (1942) 1010 (1963) 14500 6500 7700 8850 9440 11200 18500 19700 23500 31800
2026-04-13 20:00 8.17 8140 48000 (1942) 1010 (1963) 14500 6500 7700 8850 9440 11200 18500 19700 23500 31800
2026-04-13 19:00 8.19 8210 48000 (1942) 1010 (1963) 14500 6500 7700 8850 9440 11200 18500 19700 23500 31800
2026-04-13 18:00 8.20 8240 48000 (1942) 1010 (1963) 14500 6500 7700 8850 9440 11200 18500 19700 23500 31800
2026-04-13 17:00 8.19 8210 48000 (1942) 1010 (1963) 14500 6500 7700 8850 9440 11200 18500 19700 23500 31800
2026-04-13 16:00 8.17 8140 48000 (1942) 1010 (1963) 14500 6500 7700 8850 9440 11200 18500 19700 23500 31800
2026-04-13 15:00 8.18 8170 48000 (1942) 1010 (1963) 14500 6500 7700 8850 9440 11200 18500 19700 23500 31800
2026-04-13 14:00 8.18 8170 48000 (1942) 1010 (1963) 14500 6500 7700 8850 9440 11200 18500 19700 23500 31800
2026-04-13 13:00 8.17 8140 48000 (1942) 1010 (1963) 14500 6500 7700 8850 9440 11200 18500 19700 23500 31800
2026-04-13 12:00 8.14 8040 48000 (1942) 1010 (1963) 14500 6500 7700 8850 9440 11200 18500 19700 23500 31800
2026-04-13 11:00 8.09 7870 48000 (1942) 1010 (1963) 14500 6500 7700 8850 9440 11200 18500 19700 23500 31800
2026-04-13 10:00 8.08 7840 48000 (1942) 1010 (1963) 14500 6500 7700 8850 9440 11200 18500 19700 23500 31800
2026-04-13 09:00 8.07 7800 48000 (1942) 1010 (1963) 14500 6500 7700 8850 9440 11200 18500 19700 23500 31800
2026-04-13 08:00 8.08 7840 48000 (1942) 1010 (1963) 14500 6500 7700 8850 9440 11200 18500 19700 23500 31800
2026-04-13 07:00 8.07 7800 48000 (1942) 1010 (1963) 14500 6500 7700 8850 9440 11200 18500 19700 23500 31800
2026-04-13 06:00 8.08 7840 48000 (1942) 1010 (1963) 14500 6500 7700 8850 9440 11200 18500 19700 23500 31800
2026-04-13 05:00 8.09 7870 48000 (1942) 1010 (1963) 14500 6500 7700 8850 9440 11200 18500 19700 23500 31800
2026-04-13 04:00 8.11 7940 48000 (1942) 1010 (1963) 14500 6500 7700 8850 9440 11200 18500 19700 23500 31800
2026-04-13 03:00 8.12 7970 48000 (1942) 1010 (1963) 14500 6500 7700 8850 9440 11200 18500 19700 23500 31800
2026-04-13 02:00 8.13 8000 48000 (1942) 1010 (1963) 14500 6500 7700 8850 9440 11200 18500 19700 23500 31800
2026-04-13 01:00 8.17 8140 48000 (1942) 1010 (1963) 14500 6500 7700 8850 9440 11200 18500 19700 23500 31800
2026-04-13 00:00 8.20 8240 48000 (1942) 1010 (1963) 14500 6500 7700 8850 9440 11200 18500 19700 23500 31800
2026-04-12 23:00 8.20 8240 48000 (1942) 1010 (1963) 14500 6500 7700 8850 9440 11200 18500 19700 23500 31800
2026-04-12 22:00 8.21 8280 44500 (1942) 990 (1963) 14400 7030 7500 9350 9760 11700 17800 20000 25200 30700
2026-04-12 21:00 8.17 8140 44500 (1942) 990 (1963) 14400 7030 7500 9350 9760 11700 17800 20000 25200 30700
2026-04-12 20:00 8.19 8210 44500 (1942) 990 (1963) 14400 7030 7500 9350 9760 11700 17800 20000 25200 30700
2026-04-12 19:00 8.19 8210 44500 (1942) 990 (1963) 14400 7030 7500 9350 9760 11700 17800 20000 25200 30700
2026-04-12 18:00 8.19 8210 44500 (1942) 990 (1963) 14400 7030 7500 9350 9760 11700 17800 20000 25200 30700
2026-04-12 17:00 8.17 8140 44500 (1942) 990 (1963) 14400 7030 7500 9350 9760 11700 17800 20000 25200 30700
2026-04-12 16:00 8.13 8000 44500 (1942) 990 (1963) 14400 7030 7500 9350 9760 11700 17800 20000 25200 30700
2026-04-12 15:00 8.15 8070 44500 (1942) 990 (1963) 14400 7030 7500 9350 9760 11700 17800 20000 25200 30700
2026-04-12 14:00 8.14 8040 44500 (1942) 990 (1963) 14400 7030 7500 9350 9760 11700 17800 20000 25200 30700
2026-04-12 13:00 8.12 7970 44500 (1942) 990 (1963) 14400 7030 7500 9350 9760 11700 17800 20000 25200 30700
2026-04-12 12:00 8.07 7800 44500 (1942) 990 (1963) 14400 7030 7500 9350 9760 11700 17800 20000 25200 30700
2026-04-12 11:00 8.07 7800 44500 (1942) 990 (1963) 14400 7030 7500 9350 9760 11700 17800 20000 25200 30700
2026-04-12 10:00 8.07 7800 44500 (1942) 990 (1963) 14400 7030 7500 9350 9760 11700 17800 20000 25200 30700
2026-04-12 09:00 8.07 7800 44500 (1942) 990 (1963) 14400 7030 7500 9350 9760 11700 17800 20000 25200 30700
2026-04-12 08:00 8.07 7800 44500 (1942) 990 (1963) 14400 7030 7500 9350 9760 11700 17800 20000 25200 30700
2026-04-12 07:00 8.07 7800 44500 (1942) 990 (1963) 14400 7030 7500 9350 9760 11700 17800 20000 25200 30700
2026-04-12 06:00 8.08 7840 44500 (1942) 990 (1963) 14400 7030 7500 9350 9760 11700 17800 20000 25200 30700
2026-04-12 05:00 8.08 7840 44500 (1942) 990 (1963) 14400 7030 7500 9350 9760 11700 17800 20000 25200 30700
2026-04-12 04:00 8.09 7870 44500 (1942) 990 (1963) 14400 7030 7500 9350 9760 11700 17800 20000 25200 30700
2026-04-12 03:00 8.11 7940 44500 (1942) 990 (1963) 14400 7030 7500 9350 9760 11700 17800 20000 25200 30700
2026-04-12 02:00 8.13 8000 44500 (1942) 990 (1963) 14400 7030 7500 9350 9760 11700 17800 20000 25200 30700
2026-04-12 01:00 8.18 8170 44500 (1942) 990 (1963) 14400 7030 7500 9350 9760 11700 17800 20000 25200 30700
2026-04-12 00:00 8.20 8240 44500 (1942) 990 (1963) 14400 7030 7500 9350 9760 11700 17800 20000 25200 30700
2026-04-11 23:00 8.19 8210 44500 (1942) 990 (1963) 14400 7030 7500 9350 9760 11700 17800 20000 25200 30700
2026-04-11 22:00 8.20 8240 40600 (1942) 990 (1963) 14300 6490 7220 9530 9840 11600 17300 17900 26300 30900
2026-04-11 21:00 8.20 8240 40600 (1942) 990 (1963) 14300 6490 7220 9530 9840 11600 17300 17900 26300 30900
2026-04-11 20:00 8.19 8210 40600 (1942) 990 (1963) 14300 6490 7220 9530 9840 11600 17300 17900 26300 30900
2026-04-11 19:00 8.20 8240 40600 (1942) 990 (1963) 14300 6490 7220 9530 9840 11600 17300 17900 26300 30900
2026-04-11 18:00 8.19 8210 40600 (1942) 990 (1963) 14300 6490 7220 9530 9840 11600 17300 17900 26300 30900
2026-04-11 17:00 8.17 8140 40600 (1942) 990 (1963) 14300 6490 7220 9530 9840 11600 17300 17900 26300 30900
2026-04-11 16:00 8.17 8140 40600 (1942) 990 (1963) 14300 6490 7220 9530 9840 11600 17300 17900 26300 30900
2026-04-11 15:00 8.16 8110 40600 (1942) 990 (1963) 14300 6490 7220 9530 9840 11600 17300 17900 26300 30900
2026-04-11 14:00 8.14 8040 40600 (1942) 990 (1963) 14300 6490 7220 9530 9840 11600 17300 17900 26300 30900
2026-04-11 13:00 8.09 7870 40600 (1942) 990 (1963) 14300 6490 7220 9530 9840 11600 17300 17900 26300 30900
2026-04-11 12:00 8.09 7870 40600 (1942) 990 (1963) 14300 6490 7220 9530 9840 11600 17300 17900 26300 30900
2026-04-11 11:00 8.08 7840 40600 (1942) 990 (1963) 14300 6490 7220 9530 9840 11600 17300 17900 26300 30900
2026-04-11 10:00 8.07 7800 40600 (1942) 990 (1963) 14300 6490 7220 9530 9840 11600 17300 17900 26300 30900
2026-04-11 09:00 8.07 7800 40600 (1942) 990 (1963) 14300 6490 7220 9530 9840 11600 17300 17900 26300 30900
2026-04-11 08:00 8.08 7840 40600 (1942) 990 (1963) 14300 6490 7220 9530 9840 11600 17300 17900 26300 30900
2026-04-11 07:00 8.08 7840 40600 (1942) 990 (1963) 14300 6490 7220 9530 9840 11600 17300 17900 26300 30900
2026-04-11 06:00 8.09 7870 40600 (1942) 990 (1963) 14300 6490 7220 9530 9840 11600 17300 17900 26300 30900
2026-04-11 05:00 8.11 7940 40600 (1942) 990 (1963) 14300 6490 7220 9530 9840 11600 17300 17900 26300 30900
2026-04-11 04:00 8.13 8000 40600 (1942) 990 (1963) 14300 6490 7220 9530 9840 11600 17300 17900 26300 30900
2026-04-11 03:00 8.17 8140 40600 (1942) 990 (1963) 14300 6490 7220 9530 9840 11600 17300 17900 26300 30900
2026-04-11 02:00 8.21 8280 40600 (1942) 990 (1963) 14300 6490 7220 9530 9840 11600 17300 17900 26300 30900
2026-04-11 01:00 8.22 8310 40600 (1942) 990 (1963) 14300 6490 7220 9530 9840 11600 17300 17900 26300 30900
2026-04-11 00:00 8.22 8310 40600 (1942) 990 (1963) 14300 6490 7220 9530 9840 11600 17300 17900 26300 30900
2026-04-10 23:00 8.21 8280 40600 (1942) 990 (1963) 14300 6490 7220 9530 9840 11600 17300 17900 26300 30900
2026-04-10 22:00 8.20 8240 43100 (1942) 1020 (1963) 13700 6290 7090 8650 9580 11500 16400 18100 24900 29300
2026-04-10 21:00 8.20 8240 43100 (1942) 1020 (1963) 13700 6290 7090 8650 9580 11500 16400 18100 24900 29300
2026-04-10 20:00 8.20 8240 43100 (1942) 1020 (1963) 13700 6290 7090 8650 9580 11500 16400 18100 24900 29300
2026-04-10 19:00 8.19 8210 43100 (1942) 1020 (1963) 13700 6290 7090 8650 9580 11500 16400 18100 24900 29300
2026-04-10 18:00 8.19 8210 43100 (1942) 1020 (1963) 13700 6290 7090 8650 9580 11500 16400 18100 24900 29300
2026-04-10 17:00 8.19 8210 43100 (1942) 1020 (1963) 13700 6290 7090 8650 9580 11500 16400 18100 24900 29300
2026-04-10 16:00 8.17 8140 43100 (1942) 1020 (1963) 13700 6290 7090 8650 9580 11500 16400 18100 24900 29300
2026-04-10 15:00 8.19 8210 43100 (1942) 1020 (1963) 13700 6290 7090 8650 9580 11500 16400 18100 24900 29300
2026-04-10 14:00 8.17 8140 43100 (1942) 1020 (1963) 13700 6290 7090 8650 9580 11500 16400 18100 24900 29300
2026-04-10 13:00 8.16 8110 43100 (1942) 1020 (1963) 13700 6290 7090 8650 9580 11500 16400 18100 24900 29300
2026-04-10 12:00 8.13 8000 43100 (1942) 1020 (1963) 13700 6290 7090 8650 9580 11500 16400 18100 24900 29300
2026-04-10 11:00 8.10 7900 43100 (1942) 1020 (1963) 13700 6290 7090 8650 9580 11500 16400 18100 24900 29300
2026-04-10 10:00 8.08 7840 43100 (1942) 1020 (1963) 13700 6290 7090 8650 9580 11500 16400 18100 24900 29300
2026-04-10 09:00 8.07 7800 43100 (1942) 1020 (1963) 13700 6290 7090 8650 9580 11500 16400 18100 24900 29300
2026-04-10 08:00 8.08 7840 43100 (1942) 1020 (1963) 13700 6290 7090 8650 9580 11500 16400 18100 24900 29300
2026-04-10 07:00 8.08 7840 43100 (1942) 1020 (1963) 13700 6290 7090 8650 9580 11500 16400 18100 24900 29300
2026-04-10 06:00 8.09 7870 43100 (1942) 1020 (1963) 13700 6290 7090 8650 9580 11500 16400 18100 24900 29300
2026-04-10 05:00 8.11 7940 43100 (1942) 1020 (1963) 13700 6290 7090 8650 9580 11500 16400 18100 24900 29300
2026-04-10 04:00 8.13 8000 43100 (1942) 1020 (1963) 13700 6290 7090 8650 9580 11500 16400 18100 24900 29300
2026-04-10 03:00 8.15 8070 43100 (1942) 1020 (1963) 13700 6290 7090 8650 9580 11500 16400 18100 24900 29300
2026-04-10 02:00 8.18 8170 43100 (1942) 1020 (1963) 13700 6290 7090 8650 9580 11500 16400 18100 24900 29300
2026-04-10 01:00 8.20 8240 43100 (1942) 1020 (1963) 13700 6290 7090 8650 9580 11500 16400 18100 24900 29300
2026-04-10 00:00 8.20 8240 43100 (1942) 1020 (1963) 13700 6290 7090 8650 9580 11500 16400 18100 24900 29300
2026-04-09 23:00 8.21 8280 43100 (1942) 1020 (1963) 13700 6290 7090 8650 9580 11500 16400 18100 24900 29300
2026-04-09 22:00 8.21 8280 48900 (1942) 1020 (1963) 13300 6350 7090 8310 9080 10900 16100 17200 23300 28800
2026-04-09 21:00 8.20 8240 48900 (1942) 1020 (1963) 13300 6350 7090 8310 9080 10900 16100 17200 23300 28800
2026-04-09 20:00 8.19 8210 48900 (1942) 1020 (1963) 13300 6350 7090 8310 9080 10900 16100 17200 23300 28800
2026-04-09 19:00 8.20 8240 48900 (1942) 1020 (1963) 13300 6350 7090 8310 9080 10900 16100 17200 23300 28800
2026-04-09 18:00 8.19 8210 48900 (1942) 1020 (1963) 13300 6350 7090 8310 9080 10900 16100 17200 23300 28800
2026-04-09 17:00 8.18 8170 48900 (1942) 1020 (1963) 13300 6350 7090 8310 9080 10900 16100 17200 23300 28800
2026-04-09 16:00 8.19 8210 48900 (1942) 1020 (1963) 13300 6350 7090 8310 9080 10900 16100 17200 23300 28800
2026-04-09 15:00 8.17 8140 48900 (1942) 1020 (1963) 13300 6350 7090 8310 9080 10900 16100 17200 23300 28800
2026-04-09 14:00 8.18 8170 48900 (1942) 1020 (1963) 13300 6350 7090 8310 9080 10900 16100 17200 23300 28800
2026-04-09 13:00 8.16 8110 48900 (1942) 1020 (1963) 13300 6350 7090 8310 9080 10900 16100 17200 23300 28800
2026-04-09 12:00 8.13 8000 48900 (1942) 1020 (1963) 13300 6350 7090 8310 9080 10900 16100 17200 23300 28800
2026-04-09 11:00 8.10 7900 48900 (1942) 1020 (1963) 13300 6350 7090 8310 9080 10900 16100 17200 23300 28800
2026-04-09 10:00 8.07 7800 48900 (1942) 1020 (1963) 13300 6350 7090 8310 9080 10900 16100 17200 23300 28800
2026-04-09 09:00 8.08 7840 48900 (1942) 1020 (1963) 13300 6350 7090 8310 9080 10900 16100 17200 23300 28800
2026-04-09 08:00 8.08 7840 48900 (1942) 1020 (1963) 13300 6350 7090 8310 9080 10900 16100 17200 23300 28800
2026-04-09 07:00 8.08 7840 48900 (1942) 1020 (1963) 13300 6350 7090 8310 9080 10900 16100 17200 23300 28800
2026-04-09 06:00 8.10 7900 48900 (1942) 1020 (1963) 13300 6350 7090 8310 9080 10900 16100 17200 23300 28800
2026-04-09 05:00 8.11 7940 48900 (1942) 1020 (1963) 13300 6350 7090 8310 9080 10900 16100 17200 23300 28800
2026-04-09 04:00 8.14 8040 48900 (1942) 1020 (1963) 13300 6350 7090 8310 9080 10900 16100 17200 23300 28800
2026-04-09 03:00 8.17 8140 48900 (1942) 1020 (1963) 13300 6350 7090 8310 9080 10900 16100 17200 23300 28800
2026-04-09 02:00 8.19 8210 48900 (1942) 1020 (1963) 13300 6350 7090 8310 9080 10900 16100 17200 23300 28800
2026-04-09 01:00 8.19 8210 48900 (1942) 1020 (1963) 13300 6350 7090 8310 9080 10900 16100 17200 23300 28800
2026-04-09 00:00 8.20 8240 48900 (1942) 1020 (1963) 13300 6350 7090 8310 9080 10900 16100 17200 23300 28800
2026-04-08 23:00 8.20 8240 48900 (1942) 1020 (1963) 13300 6350 7090 8310 9080 10900 16100 17200 23300 28800
2026-04-08 22:00 8.20 8240 52500 (1942) 1030 (1963) 13200 5800 6600 8820 9240 10600 16200 17800 23800 27400
2026-04-08 21:00 8.20 8240 52500 (1942) 1030 (1963) 13200 5800 6600 8820 9240 10600 16200 17800 23800 27400
2026-04-08 20:00 8.19 8210 52500 (1942) 1030 (1963) 13200 5800 6600 8820 9240 10600 16200 17800 23800 27400
2026-04-08 19:00 8.19 8210 52500 (1942) 1030 (1963) 13200 5800 6600 8820 9240 10600 16200 17800 23800 27400
2026-04-08 18:00 8.19 8210 52500 (1942) 1030 (1963) 13200 5800 6600 8820 9240 10600 16200 17800 23800 27400
2026-04-08 17:00 8.19 8210 52500 (1942) 1030 (1963) 13200 5800 6600 8820 9240 10600 16200 17800 23800 27400
2026-04-08 16:00 8.18 8170 52500 (1942) 1030 (1963) 13200 5800 6600 8820 9240 10600 16200 17800 23800 27400
2026-04-08 15:00 8.18 8170 52500 (1942) 1030 (1963) 13200 5800 6600 8820 9240 10600 16200 17800 23800 27400
2026-04-08 14:00 8.16 8110 52500 (1942) 1030 (1963) 13200 5800 6600 8820 9240 10600 16200 17800 23800 27400
2026-04-08 13:00 8.13 8000 52500 (1942) 1030 (1963) 13200 5800 6600 8820 9240 10600 16200 17800 23800 27400
2026-04-08 12:00 8.10 7900 52500 (1942) 1030 (1963) 13200 5800 6600 8820 9240 10600 16200 17800 23800 27400
2026-04-08 11:00 8.08 7840 52500 (1942) 1030 (1963) 13200 5800 6600 8820 9240 10600 16200 17800 23800 27400
2026-04-08 10:00 8.07 7800 52500 (1942) 1030 (1963) 13200 5800 6600 8820 9240 10600 16200 17800 23800 27400
2026-04-08 09:00 8.08 7840 52500 (1942) 1030 (1963) 13200 5800 6600 8820 9240 10600 16200 17800 23800 27400
2026-04-08 08:00 8.08 7840 52500 (1942) 1030 (1963) 13200 5800 6600 8820 9240 10600 16200 17800 23800 27400
2026-04-08 07:00 8.08 7840 52500 (1942) 1030 (1963) 13200 5800 6600 8820 9240 10600 16200 17800 23800 27400
2026-04-08 06:00 8.10 7900 52500 (1942) 1030 (1963) 13200 5800 6600 8820 9240 10600 16200 17800 23800 27400
2026-04-08 05:00 8.12 7970 52500 (1942) 1030 (1963) 13200 5800 6600 8820 9240 10600 16200 17800 23800 27400
2026-04-08 04:00 8.14 8040 52500 (1942) 1030 (1963) 13200 5800 6600 8820 9240 10600 16200 17800 23800 27400
2026-04-08 03:00 8.18 8170 52500 (1942) 1030 (1963) 13200 5800 6600 8820 9240 10600 16200 17800 23800 27400
2026-04-08 02:00 8.19 8210 52500 (1942) 1030 (1963) 13200 5800 6600 8820 9240 10600 16200 17800 23800 27400
2026-04-08 01:00 8.19 8210 52500 (1942) 1030 (1963) 13200 5800 6600 8820 9240 10600 16200 17800 23800 27400
2026-04-08 00:00 8.20 8240 52500 (1942) 1030 (1963) 13200 5800 6600 8820 9240 10600 16200 17800 23800 27400
2026-04-07 23:00 8.21 8280 52500 (1942) 1030 (1963) 13200 5800 6600 8820 9240 10600 16200 17800 23800 27400
2026-04-07 22:00 8.19 8210 40300 (1942) 1020 (1963) 12800 5610 6570 8290 9180 10700 15200 16500 22200 26300
2026-04-07 21:00 8.19 8210 40300 (1942) 1020 (1963) 12800 5610 6570 8290 9180 10700 15200 16500 22200 26300
2026-04-07 20:00 8.19 8210 40300 (1942) 1020 (1963) 12800 5610 6570 8290 9180 10700 15200 16500 22200 26300
2026-04-07 19:00 8.19 8210 40300 (1942) 1020 (1963) 12800 5610 6570 8290 9180 10700 15200 16500 22200 26300
2026-04-07 18:00 8.19 8210 40300 (1942) 1020 (1963) 12800 5610 6570 8290 9180 10700 15200 16500 22200 26300
2026-04-07 17:00 8.19 8210 40300 (1942) 1020 (1963) 12800 5610 6570 8290 9180 10700 15200 16500 22200 26300
2026-04-07 16:00 8.18 8170 40300 (1942) 1020 (1963) 12800 5610 6570 8290 9180 10700 15200 16500 22200 26300
2026-04-07 15:00 8.18 8170 40300 (1942) 1020 (1963) 12800 5610 6570 8290 9180 10700 15200 16500 22200 26300
2026-04-07 14:00 8.16 8110 40300 (1942) 1020 (1963) 12800 5610 6570 8290 9180 10700 15200 16500 22200 26300
2026-04-07 13:00 8.14 8040 40300 (1942) 1020 (1963) 12800 5610 6570 8290 9180 10700 15200 16500 22200 26300
2026-04-07 12:00 8.10 7900 40300 (1942) 1020 (1963) 12800 5610 6570 8290 9180 10700 15200 16500 22200 26300
2026-04-07 11:00 8.08 7840 40300 (1942) 1020 (1963) 12800 5610 6570 8290 9180 10700 15200 16500 22200 26300
2026-04-07 10:00 8.07 7800 40300 (1942) 1020 (1963) 12800 5610 6570 8290 9180 10700 15200 16500 22200 26300
2026-04-07 09:00 8.07 7800 40300 (1942) 1020 (1963) 12800 5610 6570 8290 9180 10700 15200 16500 22200 26300
2026-04-07 08:00 8.07 7800 40300 (1942) 1020 (1963) 12800 5610 6570 8290 9180 10700 15200 16500 22200 26300
2026-04-07 07:00 8.07 7800 40300 (1942) 1020 (1963) 12800 5610 6570 8290 9180 10700 15200 16500 22200 26300
2026-04-07 06:00 8.08 7840 40300 (1942) 1020 (1963) 12800 5610 6570 8290 9180 10700 15200 16500 22200 26300
2026-04-07 05:00 8.09 7870 40300 (1942) 1020 (1963) 12800 5610 6570 8290 9180 10700 15200 16500 22200 26300
2026-04-07 04:00 8.10 7900 40300 (1942) 1020 (1963) 12800 5610 6570 8290 9180 10700 15200 16500 22200 26300
2026-04-07 03:00 8.13 8000 40300 (1942) 1020 (1963) 12800 5610 6570 8290 9180 10700 15200 16500 22200 26300
2026-04-07 02:00 8.16 8110 40300 (1942) 1020 (1963) 12800 5610 6570 8290 9180 10700 15200 16500 22200 26300
2026-04-07 01:00 8.19 8210 40300 (1942) 1020 (1963) 12800 5610 6570 8290 9180 10700 15200 16500 22200 26300
2026-04-07 00:00 8.20 8240 40300 (1942) 1020 (1963) 12800 5610 6570 8290 9180 10700 15200 16500 22200 26300
2026-04-06 23:00 8.19 8210 40300 (1942) 1020 (1963) 12800 5610 6570 8290 9180 10700 15200 16500 22200 26300
2026-04-06 22:00 8.20 8240 28900 (1942) 1020 (1963) 12300 5340 6700 8290 8850 10600 15700 16800 20900 24400
2026-04-06 21:00 8.19 8210 28900 (1942) 1020 (1963) 12300 5340 6700 8290 8850 10600 15700 16800 20900 24400
2026-04-06 20:00 8.20 8240 28900 (1942) 1020 (1963) 12300 5340 6700 8290 8850 10600 15700 16800 20900 24400
2026-04-06 19:00 8.19 8210 28900 (1942) 1020 (1963) 12300 5340 6700 8290 8850 10600 15700 16800 20900 24400
2026-04-06 18:00 8.19 8210 28900 (1942) 1020 (1963) 12300 5340 6700 8290 8850 10600 15700 16800 20900 24400
2026-04-06 17:00 8.18 8170 28900 (1942) 1020 (1963) 12300 5340 6700 8290 8850 10600 15700 16800 20900 24400
2026-04-06 16:00 8.18 8170 28900 (1942) 1020 (1963) 12300 5340 6700 8290 8850 10600 15700 16800 20900 24400
2026-04-06 15:00 8.18 8170 28900 (1942) 1020 (1963) 12300 5340 6700 8290 8850 10600 15700 16800 20900 24400
2026-04-06 14:00 8.17 8140 28900 (1942) 1020 (1963) 12300 5340 6700 8290 8850 10600 15700 16800 20900 24400
2026-04-06 13:00 8.16 8110 28900 (1942) 1020 (1963) 12300 5340 6700 8290 8850 10600 15700 16800 20900 24400
2026-04-06 12:00 8.13 8000 28900 (1942) 1020 (1963) 12300 5340 6700 8290 8850 10600 15700 16800 20900 24400
2026-04-06 11:00 8.09 7870 28900 (1942) 1020 (1963) 12300 5340 6700 8290 8850 10600 15700 16800 20900 24400
2026-04-06 10:00 8.07 7800 28900 (1942) 1020 (1963) 12300 5340 6700 8290 8850 10600 15700 16800 20900 24400
2026-04-06 09:00 8.07 7800 28900 (1942) 1020 (1963) 12300 5340 6700 8290 8850 10600 15700 16800 20900 24400
2026-04-06 08:00 8.07 7800 28900 (1942) 1020 (1963) 12300 5340 6700 8290 8850 10600 15700 16800 20900 24400
2026-04-06 07:00 8.07 7800 28900 (1942) 1020 (1963) 12300 5340 6700 8290 8850 10600 15700 16800 20900 24400
2026-04-06 06:00 8.07 7800 28900 (1942) 1020 (1963) 12300 5340 6700 8290 8850 10600 15700 16800 20900 24400
2026-04-06 05:00 8.08 7840 28900 (1942) 1020 (1963) 12300 5340 6700 8290 8850 10600 15700 16800 20900 24400
2026-04-06 04:00 8.08 7840 28900 (1942) 1020 (1963) 12300 5340 6700 8290 8850 10600 15700 16800 20900 24400
2026-04-06 03:00 8.10 7900 28900 (1942) 1020 (1963) 12300 5340 6700 8290 8850 10600 15700 16800 20900 24400
2026-04-06 02:00 8.13 8000 28900 (1942) 1020 (1963) 12300 5340 6700 8290 8850 10600 15700 16800 20900 24400
2026-04-06 01:00 8.17 8140 28900 (1942) 1020 (1963) 12300 5340 6700 8290 8850 10600 15700 16800 20900 24400
2026-04-06 00:00 8.18 8170 28900 (1942) 1020 (1963) 12300 5340 6700 8290 8850 10600 15700 16800 20900 24400
2026-04-05 23:00 8.20 8240 28900 (1942) 1020 (1963) 12300 5340 6700 8290 8850 10600 15700 16800 20900 24400
2026-04-05 22:00 8.19 8210 27900 (1973) 1040 (1963) 12000 4100 6620 8290 8520 10600 14800 16300 20300 23700
2026-04-05 21:00 8.20 8240 27900 (1973) 1040 (1963) 12000 4100 6620 8290 8520 10600 14800 16300 20300 23700
2026-04-05 20:00 8.20 8240 27900 (1973) 1040 (1963) 12000 4100 6620 8290 8520 10600 14800 16300 20300 23700
2026-04-05 19:00 8.19 8210 27900 (1973) 1040 (1963) 12000 4100 6620 8290 8520 10600 14800 16300 20300 23700
2026-04-05 18:00 8.19 8210 27900 (1973) 1040 (1963) 12000 4100 6620 8290 8520 10600 14800 16300 20300 23700
2026-04-05 17:00 8.19 8210 27900 (1973) 1040 (1963) 12000 4100 6620 8290 8520 10600 14800 16300 20300 23700
2026-04-05 16:00 8.19 8210 27900 (1973) 1040 (1963) 12000 4100 6620 8290 8520 10600 14800 16300 20300 23700
2026-04-05 15:00 8.15 8070 27900 (1973) 1040 (1963) 12000 4100 6620 8290 8520 10600 14800 16300 20300 23700
2026-04-05 14:00 8.16 8110 27900 (1973) 1040 (1963) 12000 4100 6620 8290 8520 10600 14800 16300 20300 23700
2026-04-05 13:00 8.14 8040 27900 (1973) 1040 (1963) 12000 4100 6620 8290 8520 10600 14800 16300 20300 23700
2026-04-05 12:00 8.11 7940 27900 (1973) 1040 (1963) 12000 4100 6620 8290 8520 10600 14800 16300 20300 23700
2026-04-05 11:00 8.07 7800 27900 (1973) 1040 (1963) 12000 4100 6620 8290 8520 10600 14800 16300 20300 23700
2026-04-05 10:00 8.08 7840 27900 (1973) 1040 (1963) 12000 4100 6620 8290 8520 10600 14800 16300 20300 23700
2026-04-05 09:00 8.07 7800 27900 (1973) 1040 (1963) 12000 4100 6620 8290 8520 10600 14800 16300 20300 23700
2026-04-05 08:00 8.08 7840 27900 (1973) 1040 (1963) 12000 4100 6620 8290 8520 10600 14800 16300 20300 23700
2026-04-05 07:00 8.07 7800 27900 (1973) 1040 (1963) 12000 4100 6620 8290 8520 10600 14800 16300 20300 23700
2026-04-05 06:00 8.07 7800 27900 (1973) 1040 (1963) 12000 4100 6620 8290 8520 10600 14800 16300 20300 23700
2026-04-05 05:00 8.07 7800 27900 (1973) 1040 (1963) 12000 4100 6620 8290 8520 10600 14800 16300 20300 23700
2026-04-05 04:00 8.08 7840 27900 (1973) 1040 (1963) 12000 4100 6620 8290 8520 10600 14800 16300 20300 23700
2026-04-05 03:00 8.09 7870 27900 (1973) 1040 (1963) 12000 4100 6620 8290 8520 10600 14800 16300 20300 23700
2026-04-05 02:00 8.12 7970 27900 (1973) 1040 (1963) 12000 4100 6620 8290 8520 10600 14800 16300 20300 23700
2026-04-05 01:00 8.16 8110 27900 (1973) 1040 (1963) 12000 4100 6620 8290 8520 10600 14800 16300 20300 23700
2026-04-05 00:00 8.18 8170 27900 (1973) 1040 (1963) 12000 4100 6620 8290 8520 10600 14800 16300 20300 23700
2026-04-04 23:00 8.19 8210 27900 (1973) 1040 (1963) 12000 4100 6620 8290 8520 10600 14800 16300 20300 23700

A total of 731 rows are displayed for years 1922 through 2025.